<?xml version="1.0" encoding="UTF-8" standalone="no" ?>
<gpx xmlns="http://www.topografix.com/GPX/1/1" xmlns:xsi="http://www.w3.org/2001/XMLSchema-instance" xsi:schemaLocation="http://www.topografix.com/GPX/1/1 http://www.topografix.com/GPX/1/1/gpx.xsd" version="1.1" creator="VisuGPX - https://www.visugpx.com">
  <metadata>
    <name>Bon secours Classic 45 kms</name>
  </metadata>
  <trk>
    <name><![CDATA[14821631-Bon secours Classic 45 kms]]></name>
    <trkseg>
      <trkpt lat="50.50267" lon="3.5888">
        <ele>43</ele>
        <time>2022-05-26T01:41:54Z</time>
      </trkpt>
      <trkpt lat="50.50218" lon="3.5888">
        <ele>42</ele>
        <time>2022-05-26T01:42:05Z</time>
      </trkpt>
      <trkpt lat="50.50211" lon="3.58884">
        <ele>42</ele>
        <time>2022-05-26T01:42:07Z</time>
      </trkpt>
      <trkpt lat="50.50206" lon="3.58892">
        <ele>42</ele>
        <time>2022-05-26T01:42:09Z</time>
      </trkpt>
      <trkpt lat="50.50201" lon="3.58907">
        <ele>42</ele>
        <time>2022-05-26T01:42:11Z</time>
      </trkpt>
      <trkpt lat="50.50198" lon="3.58911">
        <ele>42</ele>
        <time>2022-05-26T01:42:12Z</time>
      </trkpt>
      <trkpt lat="50.50177" lon="3.58916">
        <ele>42</ele>
        <time>2022-05-26T01:42:17Z</time>
      </trkpt>
      <trkpt lat="50.50173" lon="3.5892">
        <ele>42</ele>
        <time>2022-05-26T01:42:18Z</time>
      </trkpt>
      <trkpt lat="50.50158" lon="3.58922">
        <ele>42</ele>
        <time>2022-05-26T01:42:22Z</time>
      </trkpt>
      <trkpt lat="50.50047" lon="3.58918">
        <ele>41</ele>
        <time>2022-05-26T01:42:48Z</time>
      </trkpt>
      <trkpt lat="50.49985" lon="3.58918">
        <ele>41</ele>
        <time>2022-05-26T01:43:02Z</time>
      </trkpt>
      <trkpt lat="50.49938" lon="3.58925">
        <ele>40</ele>
        <time>2022-05-26T01:43:13Z</time>
      </trkpt>
      <trkpt lat="50.49854" lon="3.58952">
        <ele>39</ele>
        <time>2022-05-26T01:43:33Z</time>
      </trkpt>
      <trkpt lat="50.49758" lon="3.58986">
        <ele>39</ele>
        <time>2022-05-26T01:43:56Z</time>
      </trkpt>
      <trkpt lat="50.49628" lon="3.59027">
        <ele>40</ele>
        <time>2022-05-26T01:44:27Z</time>
      </trkpt>
      <trkpt lat="50.49524" lon="3.59063">
        <ele>40</ele>
        <time>2022-05-26T01:44:52Z</time>
      </trkpt>
      <trkpt lat="50.49414" lon="3.59124">
        <ele>42</ele>
        <time>2022-05-26T01:45:19Z</time>
      </trkpt>
      <trkpt lat="50.49322" lon="3.5918">
        <ele>43</ele>
        <time>2022-05-26T01:45:42Z</time>
      </trkpt>
      <trkpt lat="50.49213" lon="3.59251">
        <ele>49</ele>
        <time>2022-05-26T01:46:10Z</time>
      </trkpt>
      <trkpt lat="50.49168" lon="3.59277">
        <ele>53</ele>
        <time>2022-05-26T01:46:21Z</time>
      </trkpt>
      <trkpt lat="50.4913" lon="3.59296">
        <ele>55</ele>
        <time>2022-05-26T01:46:30Z</time>
      </trkpt>
      <trkpt lat="50.49083" lon="3.59319">
        <ele>55</ele>
        <time>2022-05-26T01:46:42Z</time>
      </trkpt>
      <trkpt lat="50.49073" lon="3.59336">
        <ele>55</ele>
        <time>2022-05-26T01:46:45Z</time>
      </trkpt>
      <trkpt lat="50.49096" lon="3.59408">
        <ele>53</ele>
        <time>2022-05-26T01:46:57Z</time>
      </trkpt>
      <trkpt lat="50.49273" lon="3.59871">
        <ele>54</ele>
        <time>2022-05-26T01:48:18Z</time>
      </trkpt>
      <trkpt lat="50.49368" lon="3.60155">
        <ele>52</ele>
        <time>2022-05-26T01:49:05Z</time>
      </trkpt>
      <trkpt lat="50.49474" lon="3.60501">
        <ele>54</ele>
        <time>2022-05-26T01:50:02Z</time>
      </trkpt>
      <trkpt lat="50.49513" lon="3.60636">
        <ele>48</ele>
        <time>2022-05-26T01:50:24Z</time>
      </trkpt>
      <trkpt lat="50.49532" lon="3.60699">
        <ele>49</ele>
        <time>2022-05-26T01:50:35Z</time>
      </trkpt>
      <trkpt lat="50.49555" lon="3.60734">
        <ele>50</ele>
        <time>2022-05-26T01:50:42Z</time>
      </trkpt>
      <trkpt lat="50.49594" lon="3.60766">
        <ele>51</ele>
        <time>2022-05-26T01:50:52Z</time>
      </trkpt>
      <trkpt lat="50.49647" lon="3.60857">
        <ele>52</ele>
        <time>2022-05-26T01:51:11Z</time>
      </trkpt>
      <trkpt lat="50.4967" lon="3.60912">
        <ele>51</ele>
        <time>2022-05-26T01:51:21Z</time>
      </trkpt>
      <trkpt lat="50.49683" lon="3.6094">
        <ele>53</ele>
        <time>2022-05-26T01:51:26Z</time>
      </trkpt>
      <trkpt lat="50.49677" lon="3.61067">
        <ele>53</ele>
        <time>2022-05-26T01:51:45Z</time>
      </trkpt>
      <trkpt lat="50.49699" lon="3.61083">
        <ele>55</ele>
        <time>2022-05-26T01:51:50Z</time>
      </trkpt>
      <trkpt lat="50.49695" lon="3.61132">
        <ele>55</ele>
        <time>2022-05-26T01:51:58Z</time>
      </trkpt>
      <trkpt lat="50.49697" lon="3.6112">
        <ele>55</ele>
        <time>2022-05-26T01:52:00Z</time>
      </trkpt>
      <trkpt lat="50.4965" lon="3.61127">
        <ele>52</ele>
        <time>2022-05-26T01:52:11Z</time>
      </trkpt>
      <trkpt lat="50.49593" lon="3.61123">
        <ele>50</ele>
        <time>2022-05-26T01:52:24Z</time>
      </trkpt>
      <trkpt lat="50.49543" lon="3.61143">
        <ele>48</ele>
        <time>2022-05-26T01:52:36Z</time>
      </trkpt>
      <trkpt lat="50.49508" lon="3.61172">
        <ele>47</ele>
        <time>2022-05-26T01:52:45Z</time>
      </trkpt>
      <trkpt lat="50.4947" lon="3.612">
        <ele>47</ele>
        <time>2022-05-26T01:52:55Z</time>
      </trkpt>
      <trkpt lat="50.49455" lon="3.61226">
        <ele>47</ele>
        <time>2022-05-26T01:53:00Z</time>
      </trkpt>
      <trkpt lat="50.49426" lon="3.61256">
        <ele>46</ele>
        <time>2022-05-26T01:53:08Z</time>
      </trkpt>
      <trkpt lat="50.49399" lon="3.61265">
        <ele>46</ele>
        <time>2022-05-26T01:53:15Z</time>
      </trkpt>
      <trkpt lat="50.49379" lon="3.6126">
        <ele>47</ele>
        <time>2022-05-26T01:53:19Z</time>
      </trkpt>
      <trkpt lat="50.49345" lon="3.61262">
        <ele>47</ele>
        <time>2022-05-26T01:53:27Z</time>
      </trkpt>
      <trkpt lat="50.49285" lon="3.61299">
        <ele>48</ele>
        <time>2022-05-26T01:53:42Z</time>
      </trkpt>
      <trkpt lat="50.49257" lon="3.61338">
        <ele>48</ele>
        <time>2022-05-26T01:53:51Z</time>
      </trkpt>
      <trkpt lat="50.49247" lon="3.61372">
        <ele>47</ele>
        <time>2022-05-26T01:53:57Z</time>
      </trkpt>
      <trkpt lat="50.49218" lon="3.61391">
        <ele>47</ele>
        <time>2022-05-26T01:54:04Z</time>
      </trkpt>
      <trkpt lat="50.49174" lon="3.61432">
        <ele>48</ele>
        <time>2022-05-26T01:54:16Z</time>
      </trkpt>
      <trkpt lat="50.49151" lon="3.61475">
        <ele>47</ele>
        <time>2022-05-26T01:54:24Z</time>
      </trkpt>
      <trkpt lat="50.49122" lon="3.61486">
        <ele>47</ele>
        <time>2022-05-26T01:54:31Z</time>
      </trkpt>
      <trkpt lat="50.49062" lon="3.61538">
        <ele>46</ele>
        <time>2022-05-26T01:54:47Z</time>
      </trkpt>
      <trkpt lat="50.49038" lon="3.61534">
        <ele>45</ele>
        <time>2022-05-26T01:54:53Z</time>
      </trkpt>
      <trkpt lat="50.48994" lon="3.61562">
        <ele>43</ele>
        <time>2022-05-26T01:55:04Z</time>
      </trkpt>
      <trkpt lat="50.48951" lon="3.61611">
        <ele>42</ele>
        <time>2022-05-26T01:55:16Z</time>
      </trkpt>
      <trkpt lat="50.48745" lon="3.61841">
        <ele>39</ele>
        <time>2022-05-26T01:56:15Z</time>
      </trkpt>
      <trkpt lat="50.48682" lon="3.61916">
        <ele>39</ele>
        <time>2022-05-26T01:56:34Z</time>
      </trkpt>
      <trkpt lat="50.485" lon="3.62272">
        <ele>34</ele>
        <time>2022-05-26T01:57:42Z</time>
      </trkpt>
      <trkpt lat="50.49221" lon="3.62462">
        <ele>44</ele>
        <time>2022-05-26T02:00:33Z</time>
      </trkpt>
      <trkpt lat="50.49316" lon="3.62946">
        <ele>48</ele>
        <time>2022-05-26T02:01:48Z</time>
      </trkpt>
      <trkpt lat="50.49394" lon="3.63355">
        <ele>52</ele>
        <time>2022-05-26T02:02:51Z</time>
      </trkpt>
      <trkpt lat="50.49406" lon="3.63347">
        <ele>53</ele>
        <time>2022-05-26T02:02:54Z</time>
      </trkpt>
      <trkpt lat="50.49458" lon="3.63304">
        <ele>54</ele>
        <time>2022-05-26T02:03:08Z</time>
      </trkpt>
      <trkpt lat="50.49489" lon="3.63272">
        <ele>55</ele>
        <time>2022-05-26T02:03:17Z</time>
      </trkpt>
      <trkpt lat="50.49512" lon="3.63238">
        <ele>56</ele>
        <time>2022-05-26T02:03:24Z</time>
      </trkpt>
      <trkpt lat="50.49515" lon="3.63254">
        <ele>56</ele>
        <time>2022-05-26T02:03:26Z</time>
      </trkpt>
      <trkpt lat="50.49532" lon="3.63359">
        <ele>59</ele>
        <time>2022-05-26T02:03:43Z</time>
      </trkpt>
      <trkpt lat="50.49544" lon="3.63486">
        <ele>62</ele>
        <time>2022-05-26T02:04:02Z</time>
      </trkpt>
      <trkpt lat="50.4957" lon="3.63624">
        <ele>63</ele>
        <time>2022-05-26T02:04:23Z</time>
      </trkpt>
      <trkpt lat="50.4959" lon="3.6371">
        <ele>61</ele>
        <time>2022-05-26T02:04:37Z</time>
      </trkpt>
      <trkpt lat="50.49607" lon="3.63787">
        <ele>60</ele>
        <time>2022-05-26T02:04:49Z</time>
      </trkpt>
      <trkpt lat="50.49678" lon="3.63907">
        <ele>59</ele>
        <time>2022-05-26T02:05:13Z</time>
      </trkpt>
      <trkpt lat="50.49724" lon="3.63929">
        <ele>62</ele>
        <time>2022-05-26T02:05:24Z</time>
      </trkpt>
      <trkpt lat="50.49661" lon="3.64021">
        <ele>57</ele>
        <time>2022-05-26T02:05:44Z</time>
      </trkpt>
      <trkpt lat="50.49551" lon="3.64133">
        <ele>50</ele>
        <time>2022-05-26T02:06:15Z</time>
      </trkpt>
      <trkpt lat="50.49566" lon="3.64232">
        <ele>48</ele>
        <time>2022-05-26T02:06:30Z</time>
      </trkpt>
      <trkpt lat="50.49584" lon="3.6429">
        <ele>48</ele>
        <time>2022-05-26T02:06:40Z</time>
      </trkpt>
      <trkpt lat="50.4962" lon="3.64272">
        <ele>49</ele>
        <time>2022-05-26T02:06:49Z</time>
      </trkpt>
      <trkpt lat="50.49651" lon="3.64212">
        <ele>52</ele>
        <time>2022-05-26T02:07:00Z</time>
      </trkpt>
      <trkpt lat="50.49688" lon="3.64146">
        <ele>54</ele>
        <time>2022-05-26T02:07:13Z</time>
      </trkpt>
      <trkpt lat="50.49815" lon="3.63932">
        <ele>57</ele>
        <time>2022-05-26T02:07:57Z</time>
      </trkpt>
      <trkpt lat="50.49846" lon="3.63905">
        <ele>56</ele>
        <time>2022-05-26T02:08:05Z</time>
      </trkpt>
      <trkpt lat="50.49857" lon="3.63885">
        <ele>55</ele>
        <time>2022-05-26T02:08:09Z</time>
      </trkpt>
      <trkpt lat="50.49845" lon="3.63862">
        <ele>56</ele>
        <time>2022-05-26T02:08:13Z</time>
      </trkpt>
      <trkpt lat="50.49883" lon="3.63867">
        <ele>53</ele>
        <time>2022-05-26T02:08:22Z</time>
      </trkpt>
      <trkpt lat="50.49915" lon="3.63854">
        <ele>51</ele>
        <time>2022-05-26T02:08:30Z</time>
      </trkpt>
      <trkpt lat="50.49916" lon="3.63873">
        <ele>51</ele>
        <time>2022-05-26T02:08:33Z</time>
      </trkpt>
      <trkpt lat="50.49865" lon="3.63946">
        <ele>52</ele>
        <time>2022-05-26T02:08:49Z</time>
      </trkpt>
      <trkpt lat="50.49713" lon="3.64184">
        <ele>51</ele>
        <time>2022-05-26T02:09:39Z</time>
      </trkpt>
      <trkpt lat="50.49635" lon="3.64324">
        <ele>46</ele>
        <time>2022-05-26T02:10:06Z</time>
      </trkpt>
      <trkpt lat="50.49627" lon="3.64359">
        <ele>45</ele>
        <time>2022-05-26T02:10:12Z</time>
      </trkpt>
      <trkpt lat="50.49597" lon="3.64417">
        <ele>44</ele>
        <time>2022-05-26T02:10:23Z</time>
      </trkpt>
      <trkpt lat="50.49556" lon="3.64508">
        <ele>42</ele>
        <time>2022-05-26T02:10:40Z</time>
      </trkpt>
      <trkpt lat="50.49513" lon="3.6462">
        <ele>42</ele>
        <time>2022-05-26T02:10:59Z</time>
      </trkpt>
      <trkpt lat="50.49469" lon="3.6474">
        <ele>39</ele>
        <time>2022-05-26T02:11:20Z</time>
      </trkpt>
      <trkpt lat="50.49402" lon="3.64944">
        <ele>36</ele>
        <time>2022-05-26T02:11:54Z</time>
      </trkpt>
      <trkpt lat="50.49322" lon="3.65232">
        <ele>31</ele>
        <time>2022-05-26T02:12:40Z</time>
      </trkpt>
      <trkpt lat="50.49279" lon="3.65377">
        <ele>34</ele>
        <time>2022-05-26T02:13:04Z</time>
      </trkpt>
      <trkpt lat="50.49135" lon="3.65822">
        <ele>28</ele>
        <time>2022-05-26T02:14:18Z</time>
      </trkpt>
      <trkpt lat="50.49118" lon="3.6586">
        <ele>30</ele>
        <time>2022-05-26T02:14:25Z</time>
      </trkpt>
      <trkpt lat="50.49101" lon="3.65891">
        <ele>30</ele>
        <time>2022-05-26T02:14:31Z</time>
      </trkpt>
      <trkpt lat="50.49055" lon="3.65963">
        <ele>31</ele>
        <time>2022-05-26T02:14:47Z</time>
      </trkpt>
      <trkpt lat="50.49076" lon="3.66043">
        <ele>32</ele>
        <time>2022-05-26T02:14:59Z</time>
      </trkpt>
      <trkpt lat="50.49074" lon="3.66066">
        <ele>33</ele>
        <time>2022-05-26T02:15:03Z</time>
      </trkpt>
      <trkpt lat="50.49066" lon="3.66085">
        <ele>33</ele>
        <time>2022-05-26T02:15:06Z</time>
      </trkpt>
      <trkpt lat="50.49053" lon="3.66123">
        <ele>34</ele>
        <time>2022-05-26T02:15:13Z</time>
      </trkpt>
      <trkpt lat="50.49022" lon="3.6623">
        <ele>35</ele>
        <time>2022-05-26T02:15:30Z</time>
      </trkpt>
      <trkpt lat="50.48964" lon="3.66127">
        <ele>35</ele>
        <time>2022-05-26T02:15:51Z</time>
      </trkpt>
      <trkpt lat="50.48777" lon="3.66329">
        <ele>30</ele>
        <time>2022-05-26T02:16:44Z</time>
      </trkpt>
      <trkpt lat="50.48748" lon="3.66361">
        <ele>30</ele>
        <time>2022-05-26T02:16:52Z</time>
      </trkpt>
      <trkpt lat="50.48719" lon="3.66389">
        <ele>30</ele>
        <time>2022-05-26T02:17:00Z</time>
      </trkpt>
      <trkpt lat="50.48672" lon="3.66457">
        <ele>30</ele>
        <time>2022-05-26T02:17:15Z</time>
      </trkpt>
      <trkpt lat="50.48517" lon="3.66644">
        <ele>30</ele>
        <time>2022-05-26T02:18:00Z</time>
      </trkpt>
      <trkpt lat="50.48468" lon="3.66682">
        <ele>30</ele>
        <time>2022-05-26T02:18:13Z</time>
      </trkpt>
      <trkpt lat="50.48431" lon="3.6674">
        <ele>29</ele>
        <time>2022-05-26T02:18:25Z</time>
      </trkpt>
      <trkpt lat="50.48264" lon="3.66943">
        <ele>24</ele>
        <time>2022-05-26T02:19:15Z</time>
      </trkpt>
      <trkpt lat="50.48181" lon="3.67017">
        <ele>26</ele>
        <time>2022-05-26T02:19:37Z</time>
      </trkpt>
      <trkpt lat="50.48149" lon="3.67059">
        <ele>27</ele>
        <time>2022-05-26T02:19:47Z</time>
      </trkpt>
      <trkpt lat="50.48119" lon="3.67101">
        <ele>27</ele>
        <time>2022-05-26T02:19:56Z</time>
      </trkpt>
      <trkpt lat="50.4807" lon="3.67154">
        <ele>27</ele>
        <time>2022-05-26T02:20:10Z</time>
      </trkpt>
      <trkpt lat="50.48029" lon="3.67214">
        <ele>26</ele>
        <time>2022-05-26T02:20:23Z</time>
      </trkpt>
      <trkpt lat="50.47902" lon="3.67356">
        <ele>23</ele>
        <time>2022-05-26T02:20:59Z</time>
      </trkpt>
      <trkpt lat="50.47842" lon="3.67413">
        <ele>22</ele>
        <time>2022-05-26T02:21:16Z</time>
      </trkpt>
      <trkpt lat="50.47701" lon="3.67586">
        <ele>20</ele>
        <time>2022-05-26T02:21:58Z</time>
      </trkpt>
      <trkpt lat="50.47355" lon="3.67981">
        <ele>24</ele>
        <time>2022-05-26T02:23:37Z</time>
      </trkpt>
      <trkpt lat="50.47338" lon="3.68018">
        <ele>24</ele>
        <time>2022-05-26T02:23:44Z</time>
      </trkpt>
      <trkpt lat="50.47312" lon="3.68141">
        <ele>26</ele>
        <time>2022-05-26T02:24:03Z</time>
      </trkpt>
      <trkpt lat="50.47317" lon="3.6822">
        <ele>27</ele>
        <time>2022-05-26T02:24:15Z</time>
      </trkpt>
      <trkpt lat="50.47332" lon="3.68267">
        <ele>26</ele>
        <time>2022-05-26T02:24:23Z</time>
      </trkpt>
      <trkpt lat="50.47356" lon="3.68333">
        <ele>24</ele>
        <time>2022-05-26T02:24:34Z</time>
      </trkpt>
      <trkpt lat="50.47369" lon="3.68367">
        <ele>24</ele>
        <time>2022-05-26T02:24:40Z</time>
      </trkpt>
      <trkpt lat="50.47382" lon="3.68389">
        <ele>25</ele>
        <time>2022-05-26T02:24:45Z</time>
      </trkpt>
      <trkpt lat="50.47387" lon="3.68403">
        <ele>25</ele>
        <time>2022-05-26T02:24:47Z</time>
      </trkpt>
      <trkpt lat="50.47403" lon="3.68417">
        <ele>26</ele>
        <time>2022-05-26T02:24:51Z</time>
      </trkpt>
      <trkpt lat="50.47418" lon="3.68422">
        <ele>26</ele>
        <time>2022-05-26T02:24:55Z</time>
      </trkpt>
      <trkpt lat="50.47424" lon="3.68433">
        <ele>26</ele>
        <time>2022-05-26T02:24:57Z</time>
      </trkpt>
      <trkpt lat="50.47425" lon="3.68443">
        <ele>26</ele>
        <time>2022-05-26T02:24:59Z</time>
      </trkpt>
      <trkpt lat="50.4744" lon="3.6846">
        <ele>25</ele>
        <time>2022-05-26T02:25:03Z</time>
      </trkpt>
      <trkpt lat="50.47462" lon="3.68457">
        <ele>24</ele>
        <time>2022-05-26T02:25:08Z</time>
      </trkpt>
      <trkpt lat="50.47472" lon="3.68461">
        <ele>24</ele>
        <time>2022-05-26T02:25:11Z</time>
      </trkpt>
      <trkpt lat="50.47407" lon="3.68514">
        <ele>27</ele>
        <time>2022-05-26T02:25:28Z</time>
      </trkpt>
      <trkpt lat="50.47366" lon="3.68553">
        <ele>26</ele>
        <time>2022-05-26T02:25:39Z</time>
      </trkpt>
      <trkpt lat="50.47323" lon="3.686">
        <ele>24</ele>
        <time>2022-05-26T02:25:51Z</time>
      </trkpt>
      <trkpt lat="50.473" lon="3.68671">
        <ele>23</ele>
        <time>2022-05-26T02:26:03Z</time>
      </trkpt>
      <trkpt lat="50.47254" lon="3.689">
        <ele>18</ele>
        <time>2022-05-26T02:26:39Z</time>
      </trkpt>
      <trkpt lat="50.47318" lon="3.68941">
        <ele>19</ele>
        <time>2022-05-26T02:26:55Z</time>
      </trkpt>
      <trkpt lat="50.47365" lon="3.68977">
        <ele>20</ele>
        <time>2022-05-26T02:27:07Z</time>
      </trkpt>
      <trkpt lat="50.47415" lon="3.69021">
        <ele>22</ele>
        <time>2022-05-26T02:27:20Z</time>
      </trkpt>
      <trkpt lat="50.47501" lon="3.69102">
        <ele>22</ele>
        <time>2022-05-26T02:27:44Z</time>
      </trkpt>
      <trkpt lat="50.47496" lon="3.69097">
        <ele>22</ele>
        <time>2022-05-26T02:27:45Z</time>
      </trkpt>
      <trkpt lat="50.47508" lon="3.6914">
        <ele>22</ele>
        <time>2022-05-26T02:27:52Z</time>
      </trkpt>
      <trkpt lat="50.47522" lon="3.69177">
        <ele>22</ele>
        <time>2022-05-26T02:27:58Z</time>
      </trkpt>
      <trkpt lat="50.47536" lon="3.69189">
        <ele>22</ele>
        <time>2022-05-26T02:28:02Z</time>
      </trkpt>
      <trkpt lat="50.47551" lon="3.69188">
        <ele>22</ele>
        <time>2022-05-26T02:28:06Z</time>
      </trkpt>
      <trkpt lat="50.47565" lon="3.6917">
        <ele>21</ele>
        <time>2022-05-26T02:28:10Z</time>
      </trkpt>
      <trkpt lat="50.47573" lon="3.69181">
        <ele>21</ele>
        <time>2022-05-26T02:28:12Z</time>
      </trkpt>
      <trkpt lat="50.47582" lon="3.69204">
        <ele>21</ele>
        <time>2022-05-26T02:28:16Z</time>
      </trkpt>
      <trkpt lat="50.47589" lon="3.69238">
        <ele>22</ele>
        <time>2022-05-26T02:28:22Z</time>
      </trkpt>
      <trkpt lat="50.47609" lon="3.6931">
        <ele>23</ele>
        <time>2022-05-26T02:28:33Z</time>
      </trkpt>
      <trkpt lat="50.47613" lon="3.69343">
        <ele>23</ele>
        <time>2022-05-26T02:28:38Z</time>
      </trkpt>
      <trkpt lat="50.47618" lon="3.69405">
        <ele>24</ele>
        <time>2022-05-26T02:28:48Z</time>
      </trkpt>
      <trkpt lat="50.47706" lon="3.69405">
        <ele>25</ele>
        <time>2022-05-26T02:29:08Z</time>
      </trkpt>
      <trkpt lat="50.47824" lon="3.69372">
        <ele>26</ele>
        <time>2022-05-26T02:29:36Z</time>
      </trkpt>
      <trkpt lat="50.47827" lon="3.69452">
        <ele>26</ele>
        <time>2022-05-26T02:29:48Z</time>
      </trkpt>
      <trkpt lat="50.47831" lon="3.69459">
        <ele>26</ele>
        <time>2022-05-26T02:29:50Z</time>
      </trkpt>
      <trkpt lat="50.47859" lon="3.69473">
        <ele>26</ele>
        <time>2022-05-26T02:29:56Z</time>
      </trkpt>
      <trkpt lat="50.4789" lon="3.69503">
        <ele>26</ele>
        <time>2022-05-26T02:30:05Z</time>
      </trkpt>
      <trkpt lat="50.47925" lon="3.69569">
        <ele>28</ele>
        <time>2022-05-26T02:30:18Z</time>
      </trkpt>
      <trkpt lat="50.47968" lon="3.69623">
        <ele>29</ele>
        <time>2022-05-26T02:30:31Z</time>
      </trkpt>
      <trkpt lat="50.47978" lon="3.69601">
        <ele>30</ele>
        <time>2022-05-26T02:30:35Z</time>
      </trkpt>
      <trkpt lat="50.48015" lon="3.69681">
        <ele>30</ele>
        <time>2022-05-26T02:30:49Z</time>
      </trkpt>
      <trkpt lat="50.4802" lon="3.69696">
        <ele>30</ele>
        <time>2022-05-26T02:30:52Z</time>
      </trkpt>
      <trkpt lat="50.48023" lon="3.69711">
        <ele>29</ele>
        <time>2022-05-26T02:30:54Z</time>
      </trkpt>
      <trkpt lat="50.48023" lon="3.69728">
        <ele>29</ele>
        <time>2022-05-26T02:30:57Z</time>
      </trkpt>
      <trkpt lat="50.48021" lon="3.69745">
        <ele>29</ele>
        <time>2022-05-26T02:30:59Z</time>
      </trkpt>
      <trkpt lat="50.48012" lon="3.69801">
        <ele>27</ele>
        <time>2022-05-26T02:31:08Z</time>
      </trkpt>
      <trkpt lat="50.47997" lon="3.69933">
        <ele>27</ele>
        <time>2022-05-26T02:31:28Z</time>
      </trkpt>
      <trkpt lat="50.47996" lon="3.69974">
        <ele>27</ele>
        <time>2022-05-26T02:31:34Z</time>
      </trkpt>
      <trkpt lat="50.48005" lon="3.70053">
        <ele>29</ele>
        <time>2022-05-26T02:31:46Z</time>
      </trkpt>
      <trkpt lat="50.48024" lon="3.70143">
        <ele>30</ele>
        <time>2022-05-26T02:32:00Z</time>
      </trkpt>
      <trkpt lat="50.47935" lon="3.70268">
        <ele>29</ele>
        <time>2022-05-26T02:32:28Z</time>
      </trkpt>
      <trkpt lat="50.47913" lon="3.70309">
        <ele>31</ele>
        <time>2022-05-26T02:32:36Z</time>
      </trkpt>
      <trkpt lat="50.47857" lon="3.70392">
        <ele>32</ele>
        <time>2022-05-26T02:32:54Z</time>
      </trkpt>
      <trkpt lat="50.47699" lon="3.70609">
        <ele>27</ele>
        <time>2022-05-26T02:33:43Z</time>
      </trkpt>
      <trkpt lat="50.47667" lon="3.7064">
        <ele>25</ele>
        <time>2022-05-26T02:33:51Z</time>
      </trkpt>
      <trkpt lat="50.47548" lon="3.70733">
        <ele>24</ele>
        <time>2022-05-26T02:34:22Z</time>
      </trkpt>
      <trkpt lat="50.47538" lon="3.70731">
        <ele>24</ele>
        <time>2022-05-26T02:34:25Z</time>
      </trkpt>
      <trkpt lat="50.47529" lon="3.70758">
        <ele>24</ele>
        <time>2022-05-26T02:34:29Z</time>
      </trkpt>
      <trkpt lat="50.4751" lon="3.70791">
        <ele>24</ele>
        <time>2022-05-26T02:34:36Z</time>
      </trkpt>
      <trkpt lat="50.47493" lon="3.7084">
        <ele>23</ele>
        <time>2022-05-26T02:34:44Z</time>
      </trkpt>
      <trkpt lat="50.47498" lon="3.7087">
        <ele>23</ele>
        <time>2022-05-26T02:34:49Z</time>
      </trkpt>
      <trkpt lat="50.47469" lon="3.70902">
        <ele>21</ele>
        <time>2022-05-26T02:34:57Z</time>
      </trkpt>
      <trkpt lat="50.47468" lon="3.70918">
        <ele>20</ele>
        <time>2022-05-26T02:35:00Z</time>
      </trkpt>
      <trkpt lat="50.4747" lon="3.70931">
        <ele>21</ele>
        <time>2022-05-26T02:35:02Z</time>
      </trkpt>
      <trkpt lat="50.47489" lon="3.7096">
        <ele>22</ele>
        <time>2022-05-26T02:35:08Z</time>
      </trkpt>
      <trkpt lat="50.47494" lon="3.70964">
        <ele>22</ele>
        <time>2022-05-26T02:35:09Z</time>
      </trkpt>
      <trkpt lat="50.47499" lon="3.70964">
        <ele>23</ele>
        <time>2022-05-26T02:35:10Z</time>
      </trkpt>
      <trkpt lat="50.47509" lon="3.70955">
        <ele>23</ele>
        <time>2022-05-26T02:35:13Z</time>
      </trkpt>
      <trkpt lat="50.47569" lon="3.70852">
        <ele>26</ele>
        <time>2022-05-26T02:35:34Z</time>
      </trkpt>
      <trkpt lat="50.47578" lon="3.70846">
        <ele>27</ele>
        <time>2022-05-26T02:35:36Z</time>
      </trkpt>
      <trkpt lat="50.47589" lon="3.70847">
        <ele>27</ele>
        <time>2022-05-26T02:35:38Z</time>
      </trkpt>
      <trkpt lat="50.47597" lon="3.70859">
        <ele>27</ele>
        <time>2022-05-26T02:35:41Z</time>
      </trkpt>
      <trkpt lat="50.47602" lon="3.70886">
        <ele>27</ele>
        <time>2022-05-26T02:35:45Z</time>
      </trkpt>
      <trkpt lat="50.47616" lon="3.70874">
        <ele>28</ele>
        <time>2022-05-26T02:35:49Z</time>
      </trkpt>
      <trkpt lat="50.47631" lon="3.7087">
        <ele>28</ele>
        <time>2022-05-26T02:35:53Z</time>
      </trkpt>
      <trkpt lat="50.47647" lon="3.70873">
        <ele>29</ele>
        <time>2022-05-26T02:35:56Z</time>
      </trkpt>
      <trkpt lat="50.47779" lon="3.71007">
        <ele>30</ele>
        <time>2022-05-26T02:36:33Z</time>
      </trkpt>
      <trkpt lat="50.47797" lon="3.71018">
        <ele>31</ele>
        <time>2022-05-26T02:36:38Z</time>
      </trkpt>
      <trkpt lat="50.47809" lon="3.71014">
        <ele>31</ele>
        <time>2022-05-26T02:36:40Z</time>
      </trkpt>
      <trkpt lat="50.47916" lon="3.70947">
        <ele>36</ele>
        <time>2022-05-26T02:37:07Z</time>
      </trkpt>
      <trkpt lat="50.47932" lon="3.70945">
        <ele>36</ele>
        <time>2022-05-26T02:37:11Z</time>
      </trkpt>
      <trkpt lat="50.4794" lon="3.70948">
        <ele>36</ele>
        <time>2022-05-26T02:37:13Z</time>
      </trkpt>
      <trkpt lat="50.4796" lon="3.70964">
        <ele>36</ele>
        <time>2022-05-26T02:37:18Z</time>
      </trkpt>
      <trkpt lat="50.48042" lon="3.71047">
        <ele>37</ele>
        <time>2022-05-26T02:37:41Z</time>
      </trkpt>
      <trkpt lat="50.48085" lon="3.70991">
        <ele>36</ele>
        <time>2022-05-26T02:37:54Z</time>
      </trkpt>
      <trkpt lat="50.48075" lon="3.70838">
        <ele>43</ele>
        <time>2022-05-26T02:38:17Z</time>
      </trkpt>
      <trkpt lat="50.48075" lon="3.70774">
        <ele>45</ele>
        <time>2022-05-26T02:38:26Z</time>
      </trkpt>
      <trkpt lat="50.48051" lon="3.70591">
        <ele>41</ele>
        <time>2022-05-26T02:38:54Z</time>
      </trkpt>
      <trkpt lat="50.48041" lon="3.70531">
        <ele>38</ele>
        <time>2022-05-26T02:39:03Z</time>
      </trkpt>
      <trkpt lat="50.4801" lon="3.70478">
        <ele>37</ele>
        <time>2022-05-26T02:39:14Z</time>
      </trkpt>
      <trkpt lat="50.4796" lon="3.70418">
        <ele>34</ele>
        <time>2022-05-26T02:39:29Z</time>
      </trkpt>
      <trkpt lat="50.47954" lon="3.70347">
        <ele>31</ele>
        <time>2022-05-26T02:39:39Z</time>
      </trkpt>
      <trkpt lat="50.47977" lon="3.70298">
        <ele>30</ele>
        <time>2022-05-26T02:39:48Z</time>
      </trkpt>
      <trkpt lat="50.47981" lon="3.7031">
        <ele>30</ele>
        <time>2022-05-26T02:39:50Z</time>
      </trkpt>
      <trkpt lat="50.47989" lon="3.70314">
        <ele>29</ele>
        <time>2022-05-26T02:39:52Z</time>
      </trkpt>
      <trkpt lat="50.48019" lon="3.70292">
        <ele>29</ele>
        <time>2022-05-26T02:40:00Z</time>
      </trkpt>
      <trkpt lat="50.48109" lon="3.7034">
        <ele>29</ele>
        <time>2022-05-26T02:40:22Z</time>
      </trkpt>
      <trkpt lat="50.48137" lon="3.70369">
        <ele>30</ele>
        <time>2022-05-26T02:40:30Z</time>
      </trkpt>
      <trkpt lat="50.48338" lon="3.70604">
        <ele>35</ele>
        <time>2022-05-26T02:41:29Z</time>
      </trkpt>
      <trkpt lat="50.48394" lon="3.70459">
        <ele>35</ele>
        <time>2022-05-26T02:41:54Z</time>
      </trkpt>
      <trkpt lat="50.484" lon="3.70448">
        <ele>35</ele>
        <time>2022-05-26T02:41:56Z</time>
      </trkpt>
      <trkpt lat="50.48461" lon="3.70288">
        <ele>37</ele>
        <time>2022-05-26T02:42:24Z</time>
      </trkpt>
      <trkpt lat="50.48483" lon="3.70238">
        <ele>37</ele>
        <time>2022-05-26T02:42:33Z</time>
      </trkpt>
      <trkpt lat="50.48522" lon="3.70117">
        <ele>39</ele>
        <time>2022-05-26T02:42:53Z</time>
      </trkpt>
      <trkpt lat="50.48519" lon="3.70093">
        <ele>40</ele>
        <time>2022-05-26T02:42:57Z</time>
      </trkpt>
      <trkpt lat="50.48525" lon="3.70068">
        <ele>40</ele>
        <time>2022-05-26T02:43:01Z</time>
      </trkpt>
      <trkpt lat="50.48539" lon="3.70079">
        <ele>40</ele>
        <time>2022-05-26T02:43:04Z</time>
      </trkpt>
      <trkpt lat="50.48598" lon="3.70127">
        <ele>40</ele>
        <time>2022-05-26T02:43:20Z</time>
      </trkpt>
      <trkpt lat="50.48607" lon="3.70134">
        <ele>40</ele>
        <time>2022-05-26T02:43:22Z</time>
      </trkpt>
      <trkpt lat="50.48506" lon="3.70403">
        <ele>42</ele>
        <time>2022-05-26T02:44:08Z</time>
      </trkpt>
      <trkpt lat="50.48474" lon="3.70473">
        <ele>41</ele>
        <time>2022-05-26T02:44:21Z</time>
      </trkpt>
      <trkpt lat="50.4846" lon="3.7051">
        <ele>40</ele>
        <time>2022-05-26T02:44:28Z</time>
      </trkpt>
      <trkpt lat="50.4846" lon="3.7054">
        <ele>40</ele>
        <time>2022-05-26T02:44:32Z</time>
      </trkpt>
      <trkpt lat="50.48466" lon="3.70568">
        <ele>40</ele>
        <time>2022-05-26T02:44:37Z</time>
      </trkpt>
      <trkpt lat="50.48467" lon="3.70593">
        <ele>40</ele>
        <time>2022-05-26T02:44:40Z</time>
      </trkpt>
      <trkpt lat="50.48466" lon="3.70613">
        <ele>40</ele>
        <time>2022-05-26T02:44:43Z</time>
      </trkpt>
      <trkpt lat="50.48452" lon="3.70699">
        <ele>40</ele>
        <time>2022-05-26T02:44:56Z</time>
      </trkpt>
      <trkpt lat="50.48418" lon="3.70773">
        <ele>44</ele>
        <time>2022-05-26T02:45:10Z</time>
      </trkpt>
      <trkpt lat="50.48277" lon="3.71149">
        <ele>45</ele>
        <time>2022-05-26T02:46:15Z</time>
      </trkpt>
      <trkpt lat="50.48113" lon="3.71571">
        <ele>47</ele>
        <time>2022-05-26T02:47:28Z</time>
      </trkpt>
      <trkpt lat="50.48052" lon="3.71745">
        <ele>46</ele>
        <time>2022-05-26T02:47:58Z</time>
      </trkpt>
      <trkpt lat="50.48027" lon="3.71837">
        <ele>41</ele>
        <time>2022-05-26T02:48:13Z</time>
      </trkpt>
      <trkpt lat="50.48023" lon="3.71879">
        <ele>39</ele>
        <time>2022-05-26T02:48:19Z</time>
      </trkpt>
      <trkpt lat="50.48026" lon="3.71889">
        <ele>39</ele>
        <time>2022-05-26T02:48:21Z</time>
      </trkpt>
      <trkpt lat="50.48019" lon="3.72576">
        <ele>50</ele>
        <time>2022-05-26T02:50:03Z</time>
      </trkpt>
      <trkpt lat="50.48014" lon="3.72741">
        <ele>52</ele>
        <time>2022-05-26T02:50:27Z</time>
      </trkpt>
      <trkpt lat="50.48115" lon="3.72754">
        <ele>55</ele>
        <time>2022-05-26T02:50:51Z</time>
      </trkpt>
      <trkpt lat="50.48226" lon="3.7277">
        <ele>61</ele>
        <time>2022-05-26T02:51:17Z</time>
      </trkpt>
      <trkpt lat="50.48838" lon="3.72862">
        <ele>70</ele>
        <time>2022-05-26T02:53:41Z</time>
      </trkpt>
      <trkpt lat="50.48967" lon="3.72884">
        <ele>69</ele>
        <time>2022-05-26T02:54:11Z</time>
      </trkpt>
      <trkpt lat="50.48966" lon="3.72887">
        <ele>69</ele>
        <time>2022-05-26T02:54:11Z</time>
      </trkpt>
      <trkpt lat="50.48967" lon="3.72884">
        <ele>69</ele>
        <time>2022-05-26T02:54:12Z</time>
      </trkpt>
      <trkpt lat="50.48991" lon="3.72889">
        <ele>69</ele>
        <time>2022-05-26T02:54:18Z</time>
      </trkpt>
      <trkpt lat="50.4911" lon="3.72905">
        <ele>75</ele>
        <time>2022-05-26T02:54:45Z</time>
      </trkpt>
      <trkpt lat="50.49465" lon="3.7296">
        <ele>75</ele>
        <time>2022-05-26T02:56:09Z</time>
      </trkpt>
      <trkpt lat="50.49468" lon="3.72959">
        <ele>75</ele>
        <time>2022-05-26T02:56:09Z</time>
      </trkpt>
      <trkpt lat="50.49465" lon="3.7296">
        <ele>75</ele>
        <time>2022-05-26T02:56:10Z</time>
      </trkpt>
      <trkpt lat="50.49566" lon="3.72975">
        <ele>75</ele>
        <time>2022-05-26T02:56:34Z</time>
      </trkpt>
      <trkpt lat="50.49566" lon="3.72975">
        <ele>75</ele>
        <time>2022-05-26T02:56:34Z</time>
      </trkpt>
      <trkpt lat="50.49809" lon="3.73009">
        <ele>78</ele>
        <time>2022-05-26T02:57:31Z</time>
      </trkpt>
      <trkpt lat="50.49922" lon="3.73028">
        <ele>82</ele>
        <time>2022-05-26T02:57:57Z</time>
      </trkpt>
      <trkpt lat="50.49931" lon="3.73029">
        <ele>82</ele>
        <time>2022-05-26T02:57:59Z</time>
      </trkpt>
      <trkpt lat="50.49922" lon="3.73028">
        <ele>82</ele>
        <time>2022-05-26T02:58:02Z</time>
      </trkpt>
      <trkpt lat="50.49938" lon="3.73002">
        <ele>82</ele>
        <time>2022-05-26T02:58:07Z</time>
      </trkpt>
      <trkpt lat="50.50047" lon="3.72847">
        <ele>78</ele>
        <time>2022-05-26T02:58:41Z</time>
      </trkpt>
      <trkpt lat="50.50235" lon="3.72584">
        <ele>87</ele>
        <time>2022-05-26T02:59:40Z</time>
      </trkpt>
      <trkpt lat="50.50192" lon="3.7245">
        <ele>87</ele>
        <time>2022-05-26T03:00:02Z</time>
      </trkpt>
      <trkpt lat="50.50164" lon="3.72319">
        <ele>86</ele>
        <time>2022-05-26T03:00:23Z</time>
      </trkpt>
      <trkpt lat="50.50223" lon="3.72397">
        <ele>85</ele>
        <time>2022-05-26T03:00:41Z</time>
      </trkpt>
      <trkpt lat="50.50227" lon="3.724">
        <ele>85</ele>
        <time>2022-05-26T03:00:42Z</time>
      </trkpt>
      <trkpt lat="50.50371" lon="3.72461">
        <ele>75</ele>
        <time>2022-05-26T03:01:17Z</time>
      </trkpt>
      <trkpt lat="50.50369" lon="3.7246">
        <ele>75</ele>
        <time>2022-05-26T03:01:17Z</time>
      </trkpt>
      <trkpt lat="50.50318" lon="3.72395">
        <ele>76</ele>
        <time>2022-05-26T03:01:33Z</time>
      </trkpt>
      <trkpt lat="50.50242" lon="3.72317">
        <ele>79</ele>
        <time>2022-05-26T03:01:54Z</time>
      </trkpt>
      <trkpt lat="50.50199" lon="3.72221">
        <ele>79</ele>
        <time>2022-05-26T03:02:11Z</time>
      </trkpt>
      <trkpt lat="50.502" lon="3.72196">
        <ele>78</ele>
        <time>2022-05-26T03:02:15Z</time>
      </trkpt>
      <trkpt lat="50.50211" lon="3.72182">
        <ele>76</ele>
        <time>2022-05-26T03:02:18Z</time>
      </trkpt>
      <trkpt lat="50.50302" lon="3.72138">
        <ele>67</ele>
        <time>2022-05-26T03:02:40Z</time>
      </trkpt>
      <trkpt lat="50.50314" lon="3.72125">
        <ele>67</ele>
        <time>2022-05-26T03:02:44Z</time>
      </trkpt>
      <trkpt lat="50.50318" lon="3.7211">
        <ele>67</ele>
        <time>2022-05-26T03:02:46Z</time>
      </trkpt>
      <trkpt lat="50.50195" lon="3.71863">
        <ele>76</ele>
        <time>2022-05-26T03:03:33Z</time>
      </trkpt>
      <trkpt lat="50.50196" lon="3.71863">
        <ele>76</ele>
        <time>2022-05-26T03:03:33Z</time>
      </trkpt>
      <trkpt lat="50.50195" lon="3.71863">
        <ele>76</ele>
        <time>2022-05-26T03:03:33Z</time>
      </trkpt>
      <trkpt lat="50.50174" lon="3.71853">
        <ele>78</ele>
        <time>2022-05-26T03:03:38Z</time>
      </trkpt>
      <trkpt lat="50.50146" lon="3.71852">
        <ele>80</ele>
        <time>2022-05-26T03:03:45Z</time>
      </trkpt>
      <trkpt lat="50.50146" lon="3.71831">
        <ele>81</ele>
        <time>2022-05-26T03:03:48Z</time>
      </trkpt>
      <trkpt lat="50.50135" lon="3.71814">
        <ele>82</ele>
        <time>2022-05-26T03:03:52Z</time>
      </trkpt>
      <trkpt lat="50.50138" lon="3.71762">
        <ele>82</ele>
        <time>2022-05-26T03:03:59Z</time>
      </trkpt>
      <trkpt lat="50.50132" lon="3.71695">
        <ele>81</ele>
        <time>2022-05-26T03:04:10Z</time>
      </trkpt>
      <trkpt lat="50.50117" lon="3.71686">
        <ele>81</ele>
        <time>2022-05-26T03:04:13Z</time>
      </trkpt>
      <trkpt lat="50.50123" lon="3.71684">
        <ele>81</ele>
        <time>2022-05-26T03:04:15Z</time>
      </trkpt>
      <trkpt lat="50.50117" lon="3.71686">
        <ele>81</ele>
        <time>2022-05-26T03:04:16Z</time>
      </trkpt>
      <trkpt lat="50.50069" lon="3.71686">
        <ele>82</ele>
        <time>2022-05-26T03:04:27Z</time>
      </trkpt>
      <trkpt lat="50.50051" lon="3.71689">
        <ele>83</ele>
        <time>2022-05-26T03:04:32Z</time>
      </trkpt>
      <trkpt lat="50.50047" lon="3.71693">
        <ele>83</ele>
        <time>2022-05-26T03:04:33Z</time>
      </trkpt>
      <trkpt lat="50.50051" lon="3.71689">
        <ele>83</ele>
        <time>2022-05-26T03:04:34Z</time>
      </trkpt>
      <trkpt lat="50.49993" lon="3.7169">
        <ele>82</ele>
        <time>2022-05-26T03:04:47Z</time>
      </trkpt>
      <trkpt lat="50.49972" lon="3.71641">
        <ele>81</ele>
        <time>2022-05-26T03:04:56Z</time>
      </trkpt>
      <trkpt lat="50.49953" lon="3.71649">
        <ele>81</ele>
        <time>2022-05-26T03:05:01Z</time>
      </trkpt>
      <trkpt lat="50.49927" lon="3.71647">
        <ele>81</ele>
        <time>2022-05-26T03:05:07Z</time>
      </trkpt>
      <trkpt lat="50.49882" lon="3.7169">
        <ele>79</ele>
        <time>2022-05-26T03:05:19Z</time>
      </trkpt>
      <trkpt lat="50.4992" lon="3.71717">
        <ele>82</ele>
        <time>2022-05-26T03:05:29Z</time>
      </trkpt>
      <trkpt lat="50.4996" lon="3.71777">
        <ele>83</ele>
        <time>2022-05-26T03:05:42Z</time>
      </trkpt>
      <trkpt lat="50.49986" lon="3.71794">
        <ele>84</ele>
        <time>2022-05-26T03:05:48Z</time>
      </trkpt>
      <trkpt lat="50.49945" lon="3.71844">
        <ele>82</ele>
        <time>2022-05-26T03:06:00Z</time>
      </trkpt>
      <trkpt lat="50.49943" lon="3.7184">
        <ele>82</ele>
        <time>2022-05-26T03:06:01Z</time>
      </trkpt>
      <trkpt lat="50.49945" lon="3.71844">
        <ele>82</ele>
        <time>2022-05-26T03:06:02Z</time>
      </trkpt>
      <trkpt lat="50.49967" lon="3.71864">
        <ele>83</ele>
        <time>2022-05-26T03:06:08Z</time>
      </trkpt>
      <trkpt lat="50.49944" lon="3.71908">
        <ele>83</ele>
        <time>2022-05-26T03:06:16Z</time>
      </trkpt>
      <trkpt lat="50.49932" lon="3.71913">
        <ele>83</ele>
        <time>2022-05-26T03:06:19Z</time>
      </trkpt>
      <trkpt lat="50.4992" lon="3.71947">
        <ele>83</ele>
        <time>2022-05-26T03:06:25Z</time>
      </trkpt>
      <trkpt lat="50.49906" lon="3.71975">
        <ele>84</ele>
        <time>2022-05-26T03:06:30Z</time>
      </trkpt>
      <trkpt lat="50.49893" lon="3.71981">
        <ele>84</ele>
        <time>2022-05-26T03:06:33Z</time>
      </trkpt>
      <trkpt lat="50.49877" lon="3.71984">
        <ele>84</ele>
        <time>2022-05-26T03:06:37Z</time>
      </trkpt>
      <trkpt lat="50.49872" lon="3.71962">
        <ele>84</ele>
        <time>2022-05-26T03:06:41Z</time>
      </trkpt>
      <trkpt lat="50.49871" lon="3.71945">
        <ele>84</ele>
        <time>2022-05-26T03:06:43Z</time>
      </trkpt>
      <trkpt lat="50.4988" lon="3.71908">
        <ele>83</ele>
        <time>2022-05-26T03:06:49Z</time>
      </trkpt>
      <trkpt lat="50.49887" lon="3.71906">
        <ele>83</ele>
        <time>2022-05-26T03:06:51Z</time>
      </trkpt>
      <trkpt lat="50.49903" lon="3.71908">
        <ele>83</ele>
        <time>2022-05-26T03:06:55Z</time>
      </trkpt>
      <trkpt lat="50.49892" lon="3.71888">
        <ele>83</ele>
        <time>2022-05-26T03:06:58Z</time>
      </trkpt>
      <trkpt lat="50.49898" lon="3.71866">
        <ele>82</ele>
        <time>2022-05-26T03:07:02Z</time>
      </trkpt>
      <trkpt lat="50.49894" lon="3.71837">
        <ele>81</ele>
        <time>2022-05-26T03:07:06Z</time>
      </trkpt>
      <trkpt lat="50.49839" lon="3.71908">
        <ele>84</ele>
        <time>2022-05-26T03:07:23Z</time>
      </trkpt>
      <trkpt lat="50.49826" lon="3.71914">
        <ele>84</ele>
        <time>2022-05-26T03:07:26Z</time>
      </trkpt>
      <trkpt lat="50.49834" lon="3.71955">
        <ele>84</ele>
        <time>2022-05-26T03:07:33Z</time>
      </trkpt>
      <trkpt lat="50.49829" lon="3.71975">
        <ele>84</ele>
        <time>2022-05-26T03:07:36Z</time>
      </trkpt>
      <trkpt lat="50.49886" lon="3.72014">
        <ele>84</ele>
        <time>2022-05-26T03:07:50Z</time>
      </trkpt>
      <trkpt lat="50.49885" lon="3.72023">
        <ele>84</ele>
        <time>2022-05-26T03:07:52Z</time>
      </trkpt>
      <trkpt lat="50.49886" lon="3.72014">
        <ele>84</ele>
        <time>2022-05-26T03:07:53Z</time>
      </trkpt>
      <trkpt lat="50.49913" lon="3.72037">
        <ele>84</ele>
        <time>2022-05-26T03:08:00Z</time>
      </trkpt>
      <trkpt lat="50.49912" lon="3.72107">
        <ele>83</ele>
        <time>2022-05-26T03:08:11Z</time>
      </trkpt>
      <trkpt lat="50.49892" lon="3.72106">
        <ele>83</ele>
        <time>2022-05-26T03:08:15Z</time>
      </trkpt>
      <trkpt lat="50.49887" lon="3.72104">
        <ele>83</ele>
        <time>2022-05-26T03:08:16Z</time>
      </trkpt>
      <trkpt lat="50.49887" lon="3.721">
        <ele>83</ele>
        <time>2022-05-26T03:08:17Z</time>
      </trkpt>
      <trkpt lat="50.49887" lon="3.72104">
        <ele>83</ele>
        <time>2022-05-26T03:08:18Z</time>
      </trkpt>
      <trkpt lat="50.49892" lon="3.72106">
        <ele>83</ele>
        <time>2022-05-26T03:08:19Z</time>
      </trkpt>
      <trkpt lat="50.49929" lon="3.72108">
        <ele>83</ele>
        <time>2022-05-26T03:08:27Z</time>
      </trkpt>
      <trkpt lat="50.49947" lon="3.72129">
        <ele>83</ele>
        <time>2022-05-26T03:08:33Z</time>
      </trkpt>
      <trkpt lat="50.49972" lon="3.7214">
        <ele>83</ele>
        <time>2022-05-26T03:08:39Z</time>
      </trkpt>
      <trkpt lat="50.50008" lon="3.72208">
        <ele>83</ele>
        <time>2022-05-26T03:08:52Z</time>
      </trkpt>
      <trkpt lat="50.50036" lon="3.72213">
        <ele>84</ele>
        <time>2022-05-26T03:08:58Z</time>
      </trkpt>
      <trkpt lat="50.50047" lon="3.7225">
        <ele>85</ele>
        <time>2022-05-26T03:09:05Z</time>
      </trkpt>
      <trkpt lat="50.50066" lon="3.72276">
        <ele>86</ele>
        <time>2022-05-26T03:09:10Z</time>
      </trkpt>
      <trkpt lat="50.5008" lon="3.72313">
        <ele>87</ele>
        <time>2022-05-26T03:09:17Z</time>
      </trkpt>
      <trkpt lat="50.5008" lon="3.72436">
        <ele>84</ele>
        <time>2022-05-26T03:09:35Z</time>
      </trkpt>
      <trkpt lat="50.50039" lon="3.72492">
        <ele>82</ele>
        <time>2022-05-26T03:09:48Z</time>
      </trkpt>
      <trkpt lat="50.50044" lon="3.72502">
        <ele>83</ele>
        <time>2022-05-26T03:09:50Z</time>
      </trkpt>
      <trkpt lat="50.50039" lon="3.72492">
        <ele>82</ele>
        <time>2022-05-26T03:09:52Z</time>
      </trkpt>
      <trkpt lat="50.50036" lon="3.72471">
        <ele>82</ele>
        <time>2022-05-26T03:09:55Z</time>
      </trkpt>
      <trkpt lat="50.50023" lon="3.7246">
        <ele>81</ele>
        <time>2022-05-26T03:09:58Z</time>
      </trkpt>
      <trkpt lat="50.50004" lon="3.72404">
        <ele>80</ele>
        <time>2022-05-26T03:10:08Z</time>
      </trkpt>
      <trkpt lat="50.50014" lon="3.72382">
        <ele>81</ele>
        <time>2022-05-26T03:10:12Z</time>
      </trkpt>
      <trkpt lat="50.50022" lon="3.72351">
        <ele>82</ele>
        <time>2022-05-26T03:10:17Z</time>
      </trkpt>
      <trkpt lat="50.50019" lon="3.7232">
        <ele>83</ele>
        <time>2022-05-26T03:10:21Z</time>
      </trkpt>
      <trkpt lat="50.50011" lon="3.72311">
        <ele>82</ele>
        <time>2022-05-26T03:10:24Z</time>
      </trkpt>
      <trkpt lat="50.50005" lon="3.72317">
        <ele>82</ele>
        <time>2022-05-26T03:10:25Z</time>
      </trkpt>
      <trkpt lat="50.49996" lon="3.72263">
        <ele>82</ele>
        <time>2022-05-26T03:10:34Z</time>
      </trkpt>
      <trkpt lat="50.49979" lon="3.72257">
        <ele>82</ele>
        <time>2022-05-26T03:10:38Z</time>
      </trkpt>
      <trkpt lat="50.49962" lon="3.72177">
        <ele>82</ele>
        <time>2022-05-26T03:10:50Z</time>
      </trkpt>
      <trkpt lat="50.49944" lon="3.72167">
        <ele>82</ele>
        <time>2022-05-26T03:10:55Z</time>
      </trkpt>
      <trkpt lat="50.49923" lon="3.72171">
        <ele>81</ele>
        <time>2022-05-26T03:11:00Z</time>
      </trkpt>
      <trkpt lat="50.49932" lon="3.72168">
        <ele>81</ele>
        <time>2022-05-26T03:11:02Z</time>
      </trkpt>
      <trkpt lat="50.49948" lon="3.72198">
        <ele>81</ele>
        <time>2022-05-26T03:11:07Z</time>
      </trkpt>
      <trkpt lat="50.49953" lon="3.72224">
        <ele>81</ele>
        <time>2022-05-26T03:11:12Z</time>
      </trkpt>
      <trkpt lat="50.49962" lon="3.72247">
        <ele>81</ele>
        <time>2022-05-26T03:11:16Z</time>
      </trkpt>
      <trkpt lat="50.49955" lon="3.72312">
        <ele>79</ele>
        <time>2022-05-26T03:11:25Z</time>
      </trkpt>
      <trkpt lat="50.49978" lon="3.72342">
        <ele>80</ele>
        <time>2022-05-26T03:11:32Z</time>
      </trkpt>
      <trkpt lat="50.49982" lon="3.72357">
        <ele>80</ele>
        <time>2022-05-26T03:11:35Z</time>
      </trkpt>
      <trkpt lat="50.49978" lon="3.72377">
        <ele>79</ele>
        <time>2022-05-26T03:11:38Z</time>
      </trkpt>
      <trkpt lat="50.49977" lon="3.72406">
        <ele>79</ele>
        <time>2022-05-26T03:11:42Z</time>
      </trkpt>
      <trkpt lat="50.49981" lon="3.72416">
        <ele>79</ele>
        <time>2022-05-26T03:11:44Z</time>
      </trkpt>
      <trkpt lat="50.49987" lon="3.72449">
        <ele>79</ele>
        <time>2022-05-26T03:11:49Z</time>
      </trkpt>
      <trkpt lat="50.50005" lon="3.72467">
        <ele>79</ele>
        <time>2022-05-26T03:11:54Z</time>
      </trkpt>
      <trkpt lat="50.50002" lon="3.72511">
        <ele>79</ele>
        <time>2022-05-26T03:12:01Z</time>
      </trkpt>
      <trkpt lat="50.50057" lon="3.72599">
        <ele>83</ele>
        <time>2022-05-26T03:12:19Z</time>
      </trkpt>
      <trkpt lat="50.50037" lon="3.72622">
        <ele>82</ele>
        <time>2022-05-26T03:12:25Z</time>
      </trkpt>
      <trkpt lat="50.50012" lon="3.72668">
        <ele>79</ele>
        <time>2022-05-26T03:12:34Z</time>
      </trkpt>
      <trkpt lat="50.50007" lon="3.72709">
        <ele>78</ele>
        <time>2022-05-26T03:12:40Z</time>
      </trkpt>
      <trkpt lat="50.49995" lon="3.72731">
        <ele>76</ele>
        <time>2022-05-26T03:12:44Z</time>
      </trkpt>
      <trkpt lat="50.49996" lon="3.72753">
        <ele>76</ele>
        <time>2022-05-26T03:12:47Z</time>
      </trkpt>
      <trkpt lat="50.49917" lon="3.72619">
        <ele>75</ele>
        <time>2022-05-26T03:13:15Z</time>
      </trkpt>
      <trkpt lat="50.49844" lon="3.72488">
        <ele>71</ele>
        <time>2022-05-26T03:13:40Z</time>
      </trkpt>
      <trkpt lat="50.49833" lon="3.72422">
        <ele>72</ele>
        <time>2022-05-26T03:13:51Z</time>
      </trkpt>
      <trkpt lat="50.49872" lon="3.72398">
        <ele>74</ele>
        <time>2022-05-26T03:14:00Z</time>
      </trkpt>
      <trkpt lat="50.49898" lon="3.72334">
        <ele>76</ele>
        <time>2022-05-26T03:14:12Z</time>
      </trkpt>
      <trkpt lat="50.49884" lon="3.7233">
        <ele>76</ele>
        <time>2022-05-26T03:14:15Z</time>
      </trkpt>
      <trkpt lat="50.49875" lon="3.72311">
        <ele>76</ele>
        <time>2022-05-26T03:14:19Z</time>
      </trkpt>
      <trkpt lat="50.49869" lon="3.72289">
        <ele>76</ele>
        <time>2022-05-26T03:14:22Z</time>
      </trkpt>
      <trkpt lat="50.49813" lon="3.72281">
        <ele>73</ele>
        <time>2022-05-26T03:14:35Z</time>
      </trkpt>
      <trkpt lat="50.49809" lon="3.7228">
        <ele>73</ele>
        <time>2022-05-26T03:14:36Z</time>
      </trkpt>
      <trkpt lat="50.49801" lon="3.72232">
        <ele>73</ele>
        <time>2022-05-26T03:14:44Z</time>
      </trkpt>
      <trkpt lat="50.49808" lon="3.72235">
        <ele>74</ele>
        <time>2022-05-26T03:14:45Z</time>
      </trkpt>
      <trkpt lat="50.49844" lon="3.72231">
        <ele>77</ele>
        <time>2022-05-26T03:14:54Z</time>
      </trkpt>
      <trkpt lat="50.49863" lon="3.72265">
        <ele>76</ele>
        <time>2022-05-26T03:15:00Z</time>
      </trkpt>
      <trkpt lat="50.49851" lon="3.72207">
        <ele>78</ele>
        <time>2022-05-26T03:15:09Z</time>
      </trkpt>
      <trkpt lat="50.49817" lon="3.72152">
        <ele>78</ele>
        <time>2022-05-26T03:15:21Z</time>
      </trkpt>
      <trkpt lat="50.49789" lon="3.72164">
        <ele>75</ele>
        <time>2022-05-26T03:15:28Z</time>
      </trkpt>
      <trkpt lat="50.49779" lon="3.72096">
        <ele>76</ele>
        <time>2022-05-26T03:15:38Z</time>
      </trkpt>
      <trkpt lat="50.49769" lon="3.72045">
        <ele>77</ele>
        <time>2022-05-26T03:15:46Z</time>
      </trkpt>
      <trkpt lat="50.49764" lon="3.72026">
        <ele>77</ele>
        <time>2022-05-26T03:15:49Z</time>
      </trkpt>
      <trkpt lat="50.49757" lon="3.72009">
        <ele>77</ele>
        <time>2022-05-26T03:15:52Z</time>
      </trkpt>
      <trkpt lat="50.49746" lon="3.71993">
        <ele>77</ele>
        <time>2022-05-26T03:15:55Z</time>
      </trkpt>
      <trkpt lat="50.49757" lon="3.71997">
        <ele>78</ele>
        <time>2022-05-26T03:15:58Z</time>
      </trkpt>
      <trkpt lat="50.49746" lon="3.71993">
        <ele>77</ele>
        <time>2022-05-26T03:16:01Z</time>
      </trkpt>
      <trkpt lat="50.49766" lon="3.7196">
        <ele>81</ele>
        <time>2022-05-26T03:16:07Z</time>
      </trkpt>
      <trkpt lat="50.49765" lon="3.7196">
        <ele>81</ele>
        <time>2022-05-26T03:16:08Z</time>
      </trkpt>
      <trkpt lat="50.49685" lon="3.71898">
        <ele>81</ele>
        <time>2022-05-26T03:16:29Z</time>
      </trkpt>
      <trkpt lat="50.49628" lon="3.71946">
        <ele>75</ele>
        <time>2022-05-26T03:16:44Z</time>
      </trkpt>
      <trkpt lat="50.49621" lon="3.71924">
        <ele>76</ele>
        <time>2022-05-26T03:16:47Z</time>
      </trkpt>
      <trkpt lat="50.49619" lon="3.7191">
        <ele>77</ele>
        <time>2022-05-26T03:16:49Z</time>
      </trkpt>
      <trkpt lat="50.49626" lon="3.71882">
        <ele>78</ele>
        <time>2022-05-26T03:16:54Z</time>
      </trkpt>
      <trkpt lat="50.49638" lon="3.71861">
        <ele>80</ele>
        <time>2022-05-26T03:16:58Z</time>
      </trkpt>
      <trkpt lat="50.49693" lon="3.71791">
        <ele>82</ele>
        <time>2022-05-26T03:17:15Z</time>
      </trkpt>
      <trkpt lat="50.49677" lon="3.71668">
        <ele>79</ele>
        <time>2022-05-26T03:17:33Z</time>
      </trkpt>
      <trkpt lat="50.49482" lon="3.7176">
        <ele>75</ele>
        <time>2022-05-26T03:18:21Z</time>
      </trkpt>
      <trkpt lat="50.4946" lon="3.71768">
        <ele>75</ele>
        <time>2022-05-26T03:18:26Z</time>
      </trkpt>
      <trkpt lat="50.49455" lon="3.71761">
        <ele>75</ele>
        <time>2022-05-26T03:18:28Z</time>
      </trkpt>
      <trkpt lat="50.49439" lon="3.71795">
        <ele>76</ele>
        <time>2022-05-26T03:18:34Z</time>
      </trkpt>
      <trkpt lat="50.4943" lon="3.71792">
        <ele>76</ele>
        <time>2022-05-26T03:18:36Z</time>
      </trkpt>
      <trkpt lat="50.49371" lon="3.71816">
        <ele>78</ele>
        <time>2022-05-26T03:18:50Z</time>
      </trkpt>
      <trkpt lat="50.49248" lon="3.71874">
        <ele>83</ele>
        <time>2022-05-26T03:19:20Z</time>
      </trkpt>
      <trkpt lat="50.49238" lon="3.71881">
        <ele>82</ele>
        <time>2022-05-26T03:19:23Z</time>
      </trkpt>
      <trkpt lat="50.49185" lon="3.71878">
        <ele>78</ele>
        <time>2022-05-26T03:19:35Z</time>
      </trkpt>
      <trkpt lat="50.49183" lon="3.71738">
        <ele>78</ele>
        <time>2022-05-26T03:19:56Z</time>
      </trkpt>
      <trkpt lat="50.49191" lon="3.7162">
        <ele>73</ele>
        <time>2022-05-26T03:20:14Z</time>
      </trkpt>
      <trkpt lat="50.49201" lon="3.7158">
        <ele>71</ele>
        <time>2022-05-26T03:20:20Z</time>
      </trkpt>
      <trkpt lat="50.49215" lon="3.71559">
        <ele>71</ele>
        <time>2022-05-26T03:20:25Z</time>
      </trkpt>
      <trkpt lat="50.4922" lon="3.71547">
        <ele>71</ele>
        <time>2022-05-26T03:20:27Z</time>
      </trkpt>
      <trkpt lat="50.4922" lon="3.71529">
        <ele>70</ele>
        <time>2022-05-26T03:20:29Z</time>
      </trkpt>
      <trkpt lat="50.49191" lon="3.71062">
        <ele>56</ele>
        <time>2022-05-26T03:21:39Z</time>
      </trkpt>
      <trkpt lat="50.4918" lon="3.70881">
        <ele>57</ele>
        <time>2022-05-26T03:22:06Z</time>
      </trkpt>
      <trkpt lat="50.49257" lon="3.70962">
        <ele>57</ele>
        <time>2022-05-26T03:22:28Z</time>
      </trkpt>
      <trkpt lat="50.4935" lon="3.71013">
        <ele>62</ele>
        <time>2022-05-26T03:22:51Z</time>
      </trkpt>
      <trkpt lat="50.49414" lon="3.70947">
        <ele>66</ele>
        <time>2022-05-26T03:23:09Z</time>
      </trkpt>
      <trkpt lat="50.49504" lon="3.70795">
        <ele>66</ele>
        <time>2022-05-26T03:23:39Z</time>
      </trkpt>
      <trkpt lat="50.49499" lon="3.70792">
        <ele>66</ele>
        <time>2022-05-26T03:23:41Z</time>
      </trkpt>
      <trkpt lat="50.49498" lon="3.70761">
        <ele>67</ele>
        <time>2022-05-26T03:23:45Z</time>
      </trkpt>
      <trkpt lat="50.49406" lon="3.70076">
        <ele>80</ele>
        <time>2022-05-26T03:25:29Z</time>
      </trkpt>
      <trkpt lat="50.49409" lon="3.70076">
        <ele>80</ele>
        <time>2022-05-26T03:25:30Z</time>
      </trkpt>
      <trkpt lat="50.49451" lon="3.70073">
        <ele>80</ele>
        <time>2022-05-26T03:25:40Z</time>
      </trkpt>
      <trkpt lat="50.49455" lon="3.70066">
        <ele>81</ele>
        <time>2022-05-26T03:25:41Z</time>
      </trkpt>
      <trkpt lat="50.49449" lon="3.70052">
        <ele>81</ele>
        <time>2022-05-26T03:25:44Z</time>
      </trkpt>
      <trkpt lat="50.49446" lon="3.70038">
        <ele>82</ele>
        <time>2022-05-26T03:25:46Z</time>
      </trkpt>
      <trkpt lat="50.49441" lon="3.70026">
        <ele>82</ele>
        <time>2022-05-26T03:25:48Z</time>
      </trkpt>
      <trkpt lat="50.4944" lon="3.70017">
        <ele>83</ele>
        <time>2022-05-26T03:25:49Z</time>
      </trkpt>
      <trkpt lat="50.49443" lon="3.69995">
        <ele>84</ele>
        <time>2022-05-26T03:25:53Z</time>
      </trkpt>
      <trkpt lat="50.49443" lon="3.69977">
        <ele>84</ele>
        <time>2022-05-26T03:25:55Z</time>
      </trkpt>
      <trkpt lat="50.49447" lon="3.69969">
        <ele>84</ele>
        <time>2022-05-26T03:25:57Z</time>
      </trkpt>
      <trkpt lat="50.49448" lon="3.69939">
        <ele>84</ele>
        <time>2022-05-26T03:26:01Z</time>
      </trkpt>
      <trkpt lat="50.49443" lon="3.69924">
        <ele>84</ele>
        <time>2022-05-26T03:26:04Z</time>
      </trkpt>
      <trkpt lat="50.49444" lon="3.69886">
        <ele>84</ele>
        <time>2022-05-26T03:26:10Z</time>
      </trkpt>
      <trkpt lat="50.49441" lon="3.69876">
        <ele>84</ele>
        <time>2022-05-26T03:26:11Z</time>
      </trkpt>
      <trkpt lat="50.49433" lon="3.69868">
        <ele>83</ele>
        <time>2022-05-26T03:26:13Z</time>
      </trkpt>
      <trkpt lat="50.49428" lon="3.6986">
        <ele>83</ele>
        <time>2022-05-26T03:26:15Z</time>
      </trkpt>
      <trkpt lat="50.49434" lon="3.69815">
        <ele>83</ele>
        <time>2022-05-26T03:26:22Z</time>
      </trkpt>
      <trkpt lat="50.49431" lon="3.69767">
        <ele>82</ele>
        <time>2022-05-26T03:26:29Z</time>
      </trkpt>
      <trkpt lat="50.49431" lon="3.69732">
        <ele>82</ele>
        <time>2022-05-26T03:26:34Z</time>
      </trkpt>
      <trkpt lat="50.49422" lon="3.69711">
        <ele>82</ele>
        <time>2022-05-26T03:26:38Z</time>
      </trkpt>
      <trkpt lat="50.49407" lon="3.69695">
        <ele>82</ele>
        <time>2022-05-26T03:26:42Z</time>
      </trkpt>
      <trkpt lat="50.49394" lon="3.69677">
        <ele>81</ele>
        <time>2022-05-26T03:26:46Z</time>
      </trkpt>
      <trkpt lat="50.49436" lon="3.69655">
        <ele>81</ele>
        <time>2022-05-26T03:26:57Z</time>
      </trkpt>
      <trkpt lat="50.49471" lon="3.69659">
        <ele>82</ele>
        <time>2022-05-26T03:27:05Z</time>
      </trkpt>
      <trkpt lat="50.49487" lon="3.69652">
        <ele>81</ele>
        <time>2022-05-26T03:27:09Z</time>
      </trkpt>
      <trkpt lat="50.49497" lon="3.69644">
        <ele>81</ele>
        <time>2022-05-26T03:27:11Z</time>
      </trkpt>
      <trkpt lat="50.49433" lon="3.69417">
        <ele>77</ele>
        <time>2022-05-26T03:27:48Z</time>
      </trkpt>
      <trkpt lat="50.50013" lon="3.69427">
        <ele>56</ele>
        <time>2022-05-26T03:30:04Z</time>
      </trkpt>
      <trkpt lat="50.5007" lon="3.69413">
        <ele>54</ele>
        <time>2022-05-26T03:30:17Z</time>
      </trkpt>
      <trkpt lat="50.50207" lon="3.69398">
        <ele>53</ele>
        <time>2022-05-26T03:30:49Z</time>
      </trkpt>
      <trkpt lat="50.50199" lon="3.69376">
        <ele>54</ele>
        <time>2022-05-26T03:30:53Z</time>
      </trkpt>
      <trkpt lat="50.50201" lon="3.69355">
        <ele>54</ele>
        <time>2022-05-26T03:30:56Z</time>
      </trkpt>
      <trkpt lat="50.50214" lon="3.69304">
        <ele>53</ele>
        <time>2022-05-26T03:31:04Z</time>
      </trkpt>
      <trkpt lat="50.50199" lon="3.69022">
        <ele>50</ele>
        <time>2022-05-26T03:31:46Z</time>
      </trkpt>
      <trkpt lat="50.50203" lon="3.69001">
        <ele>49</ele>
        <time>2022-05-26T03:31:50Z</time>
      </trkpt>
      <trkpt lat="50.50201" lon="3.68954">
        <ele>49</ele>
        <time>2022-05-26T03:31:57Z</time>
      </trkpt>
      <trkpt lat="50.50194" lon="3.68941">
        <ele>49</ele>
        <time>2022-05-26T03:31:59Z</time>
      </trkpt>
      <trkpt lat="50.50157" lon="3.68286">
        <ele>47</ele>
        <time>2022-05-26T03:33:37Z</time>
      </trkpt>
      <trkpt lat="50.50154" lon="3.68245">
        <ele>49</ele>
        <time>2022-05-26T03:33:43Z</time>
      </trkpt>
      <trkpt lat="50.50149" lon="3.68199">
        <ele>49</ele>
        <time>2022-05-26T03:33:50Z</time>
      </trkpt>
      <trkpt lat="50.50151" lon="3.68173">
        <ele>48</ele>
        <time>2022-05-26T03:33:54Z</time>
      </trkpt>
      <trkpt lat="50.50148" lon="3.68081">
        <ele>48</ele>
        <time>2022-05-26T03:34:08Z</time>
      </trkpt>
      <trkpt lat="50.50149" lon="3.67881">
        <ele>44</ele>
        <time>2022-05-26T03:34:37Z</time>
      </trkpt>
      <trkpt lat="50.50119" lon="3.67734">
        <ele>43</ele>
        <time>2022-05-26T03:35:00Z</time>
      </trkpt>
      <trkpt lat="50.50121" lon="3.67733">
        <ele>43</ele>
        <time>2022-05-26T03:35:01Z</time>
      </trkpt>
      <trkpt lat="50.50114" lon="3.67717">
        <ele>43</ele>
        <time>2022-05-26T03:35:04Z</time>
      </trkpt>
      <trkpt lat="50.50104" lon="3.67702">
        <ele>44</ele>
        <time>2022-05-26T03:35:07Z</time>
      </trkpt>
      <trkpt lat="50.5005" lon="3.67654">
        <ele>46</ele>
        <time>2022-05-26T03:35:21Z</time>
      </trkpt>
      <trkpt lat="50.50042" lon="3.6764">
        <ele>46</ele>
        <time>2022-05-26T03:35:24Z</time>
      </trkpt>
      <trkpt lat="50.50023" lon="3.67597">
        <ele>46</ele>
        <time>2022-05-26T03:35:32Z</time>
      </trkpt>
      <trkpt lat="50.49979" lon="3.67514">
        <ele>42</ele>
        <time>2022-05-26T03:35:48Z</time>
      </trkpt>
      <trkpt lat="50.4997" lon="3.67499">
        <ele>42</ele>
        <time>2022-05-26T03:35:51Z</time>
      </trkpt>
      <trkpt lat="50.49959" lon="3.67482">
        <ele>41</ele>
        <time>2022-05-26T03:35:55Z</time>
      </trkpt>
      <trkpt lat="50.4992" lon="3.67534">
        <ele>42</ele>
        <time>2022-05-26T03:36:06Z</time>
      </trkpt>
      <trkpt lat="50.49879" lon="3.67561">
        <ele>44</ele>
        <time>2022-05-26T03:36:17Z</time>
      </trkpt>
      <trkpt lat="50.49864" lon="3.67574">
        <ele>44</ele>
        <time>2022-05-26T03:36:21Z</time>
      </trkpt>
      <trkpt lat="50.49844" lon="3.67578">
        <ele>45</ele>
        <time>2022-05-26T03:36:26Z</time>
      </trkpt>
      <trkpt lat="50.49834" lon="3.67578">
        <ele>45</ele>
        <time>2022-05-26T03:36:28Z</time>
      </trkpt>
      <trkpt lat="50.49738" lon="3.67546">
        <ele>48</ele>
        <time>2022-05-26T03:36:51Z</time>
      </trkpt>
      <trkpt lat="50.49684" lon="3.6754">
        <ele>48</ele>
        <time>2022-05-26T03:37:03Z</time>
      </trkpt>
      <trkpt lat="50.49651" lon="3.6752">
        <ele>49</ele>
        <time>2022-05-26T03:37:12Z</time>
      </trkpt>
      <trkpt lat="50.49648" lon="3.67513">
        <ele>49</ele>
        <time>2022-05-26T03:37:13Z</time>
      </trkpt>
      <trkpt lat="50.49654" lon="3.67477">
        <ele>48</ele>
        <time>2022-05-26T03:37:18Z</time>
      </trkpt>
      <trkpt lat="50.49668" lon="3.67418">
        <ele>48</ele>
        <time>2022-05-26T03:37:28Z</time>
      </trkpt>
      <trkpt lat="50.49667" lon="3.67396">
        <ele>47</ele>
        <time>2022-05-26T03:37:31Z</time>
      </trkpt>
      <trkpt lat="50.49657" lon="3.67339">
        <ele>46</ele>
        <time>2022-05-26T03:37:40Z</time>
      </trkpt>
      <trkpt lat="50.49645" lon="3.6729">
        <ele>46</ele>
        <time>2022-05-26T03:37:48Z</time>
      </trkpt>
      <trkpt lat="50.49636" lon="3.67263">
        <ele>46</ele>
        <time>2022-05-26T03:37:52Z</time>
      </trkpt>
      <trkpt lat="50.49633" lon="3.67229">
        <ele>46</ele>
        <time>2022-05-26T03:37:57Z</time>
      </trkpt>
      <trkpt lat="50.49628" lon="3.67195">
        <ele>46</ele>
        <time>2022-05-26T03:38:03Z</time>
      </trkpt>
      <trkpt lat="50.49625" lon="3.67181">
        <ele>46</ele>
        <time>2022-05-26T03:38:05Z</time>
      </trkpt>
      <trkpt lat="50.49716" lon="3.67014">
        <ele>45</ele>
        <time>2022-05-26T03:38:37Z</time>
      </trkpt>
      <trkpt lat="50.49625" lon="3.66896">
        <ele>47</ele>
        <time>2022-05-26T03:39:05Z</time>
      </trkpt>
      <trkpt lat="50.49528" lon="3.67058">
        <ele>49</ele>
        <time>2022-05-26T03:39:38Z</time>
      </trkpt>
      <trkpt lat="50.49493" lon="3.66945">
        <ele>52</ele>
        <time>2022-05-26T03:39:57Z</time>
      </trkpt>
      <trkpt lat="50.49508" lon="3.66913">
        <ele>52</ele>
        <time>2022-05-26T03:40:03Z</time>
      </trkpt>
      <trkpt lat="50.49468" lon="3.66811">
        <ele>53</ele>
        <time>2022-05-26T03:40:20Z</time>
      </trkpt>
      <trkpt lat="50.49414" lon="3.66742">
        <ele>54</ele>
        <time>2022-05-26T03:40:37Z</time>
      </trkpt>
      <trkpt lat="50.49414" lon="3.66739">
        <ele>54</ele>
        <time>2022-05-26T03:40:37Z</time>
      </trkpt>
      <trkpt lat="50.49408" lon="3.66724">
        <ele>53</ele>
        <time>2022-05-26T03:40:40Z</time>
      </trkpt>
      <trkpt lat="50.49383" lon="3.66684">
        <ele>53</ele>
        <time>2022-05-26T03:40:48Z</time>
      </trkpt>
      <trkpt lat="50.49358" lon="3.66668">
        <ele>53</ele>
        <time>2022-05-26T03:40:54Z</time>
      </trkpt>
      <trkpt lat="50.49333" lon="3.66609">
        <ele>53</ele>
        <time>2022-05-26T03:41:05Z</time>
      </trkpt>
      <trkpt lat="50.49296" lon="3.66548">
        <ele>53</ele>
        <time>2022-05-26T03:41:17Z</time>
      </trkpt>
      <trkpt lat="50.49266" lon="3.66492">
        <ele>54</ele>
        <time>2022-05-26T03:41:28Z</time>
      </trkpt>
      <trkpt lat="50.49241" lon="3.66453">
        <ele>53</ele>
        <time>2022-05-26T03:41:36Z</time>
      </trkpt>
      <trkpt lat="50.49229" lon="3.66453">
        <ele>53</ele>
        <time>2022-05-26T03:41:39Z</time>
      </trkpt>
      <trkpt lat="50.49221" lon="3.6646">
        <ele>52</ele>
        <time>2022-05-26T03:41:41Z</time>
      </trkpt>
      <trkpt lat="50.49213" lon="3.6648">
        <ele>52</ele>
        <time>2022-05-26T03:41:45Z</time>
      </trkpt>
      <trkpt lat="50.49182" lon="3.6646">
        <ele>50</ele>
        <time>2022-05-26T03:41:53Z</time>
      </trkpt>
      <trkpt lat="50.49202" lon="3.66397">
        <ele>50</ele>
        <time>2022-05-26T03:42:03Z</time>
      </trkpt>
      <trkpt lat="50.49212" lon="3.66372">
        <ele>50</ele>
        <time>2022-05-26T03:42:08Z</time>
      </trkpt>
      <trkpt lat="50.49221" lon="3.66358">
        <ele>50</ele>
        <time>2022-05-26T03:42:11Z</time>
      </trkpt>
      <trkpt lat="50.49231" lon="3.66347">
        <ele>51</ele>
        <time>2022-05-26T03:42:13Z</time>
      </trkpt>
      <trkpt lat="50.4924" lon="3.66341">
        <ele>51</ele>
        <time>2022-05-26T03:42:16Z</time>
      </trkpt>
      <trkpt lat="50.49248" lon="3.6634">
        <ele>52</ele>
        <time>2022-05-26T03:42:18Z</time>
      </trkpt>
      <trkpt lat="50.49281" lon="3.6637">
        <ele>53</ele>
        <time>2022-05-26T03:42:26Z</time>
      </trkpt>
      <trkpt lat="50.49295" lon="3.66378">
        <ele>53</ele>
        <time>2022-05-26T03:42:30Z</time>
      </trkpt>
      <trkpt lat="50.49278" lon="3.66359">
        <ele>53</ele>
        <time>2022-05-26T03:42:35Z</time>
      </trkpt>
      <trkpt lat="50.49267" lon="3.6634">
        <ele>53</ele>
        <time>2022-05-26T03:42:39Z</time>
      </trkpt>
      <trkpt lat="50.49181" lon="3.66127">
        <ele>39</ele>
        <time>2022-05-26T03:43:16Z</time>
      </trkpt>
      <trkpt lat="50.49324" lon="3.66178">
        <ele>51</ele>
        <time>2022-05-26T03:43:50Z</time>
      </trkpt>
      <trkpt lat="50.49436" lon="3.66231">
        <ele>55</ele>
        <time>2022-05-26T03:44:18Z</time>
      </trkpt>
      <trkpt lat="50.49527" lon="3.66259">
        <ele>55</ele>
        <time>2022-05-26T03:44:39Z</time>
      </trkpt>
      <trkpt lat="50.4963" lon="3.66289">
        <ele>55</ele>
        <time>2022-05-26T03:45:04Z</time>
      </trkpt>
      <trkpt lat="50.49638" lon="3.66303">
        <ele>54</ele>
        <time>2022-05-26T03:45:07Z</time>
      </trkpt>
      <trkpt lat="50.49657" lon="3.66319">
        <ele>54</ele>
        <time>2022-05-26T03:45:12Z</time>
      </trkpt>
      <trkpt lat="50.49699" lon="3.66387">
        <ele>55</ele>
        <time>2022-05-26T03:45:26Z</time>
      </trkpt>
      <trkpt lat="50.49767" lon="3.66496">
        <ele>53</ele>
        <time>2022-05-26T03:45:48Z</time>
      </trkpt>
      <trkpt lat="50.49755" lon="3.6652">
        <ele>52</ele>
        <time>2022-05-26T03:45:53Z</time>
      </trkpt>
      <trkpt lat="50.49754" lon="3.66517">
        <ele>53</ele>
        <time>2022-05-26T03:45:53Z</time>
      </trkpt>
      <trkpt lat="50.49704" lon="3.6662">
        <ele>49</ele>
        <time>2022-05-26T03:46:13Z</time>
      </trkpt>
      <trkpt lat="50.49718" lon="3.66607">
        <ele>49</ele>
        <time>2022-05-26T03:46:16Z</time>
      </trkpt>
      <trkpt lat="50.49729" lon="3.66591">
        <ele>49</ele>
        <time>2022-05-26T03:46:20Z</time>
      </trkpt>
      <trkpt lat="50.49739" lon="3.66583">
        <ele>49</ele>
        <time>2022-05-26T03:46:23Z</time>
      </trkpt>
      <trkpt lat="50.49775" lon="3.6657">
        <ele>48</ele>
        <time>2022-05-26T03:46:31Z</time>
      </trkpt>
      <trkpt lat="50.49815" lon="3.66538">
        <ele>47</ele>
        <time>2022-05-26T03:46:42Z</time>
      </trkpt>
      <trkpt lat="50.49864" lon="3.66493">
        <ele>44</ele>
        <time>2022-05-26T03:46:55Z</time>
      </trkpt>
      <trkpt lat="50.49878" lon="3.66361">
        <ele>44</ele>
        <time>2022-05-26T03:47:15Z</time>
      </trkpt>
      <trkpt lat="50.49877" lon="3.66363">
        <ele>45</ele>
        <time>2022-05-26T03:47:15Z</time>
      </trkpt>
      <trkpt lat="50.49891" lon="3.66348">
        <ele>42</ele>
        <time>2022-05-26T03:47:19Z</time>
      </trkpt>
      <trkpt lat="50.49912" lon="3.66336">
        <ele>39</ele>
        <time>2022-05-26T03:47:24Z</time>
      </trkpt>
      <trkpt lat="50.49968" lon="3.66318">
        <ele>36</ele>
        <time>2022-05-26T03:47:38Z</time>
      </trkpt>
      <trkpt lat="50.49988" lon="3.66314">
        <ele>35</ele>
        <time>2022-05-26T03:47:42Z</time>
      </trkpt>
      <trkpt lat="50.50005" lon="3.66312">
        <ele>35</ele>
        <time>2022-05-26T03:47:46Z</time>
      </trkpt>
      <trkpt lat="50.50021" lon="3.66315">
        <ele>36</ele>
        <time>2022-05-26T03:47:50Z</time>
      </trkpt>
      <trkpt lat="50.50027" lon="3.66304">
        <ele>36</ele>
        <time>2022-05-26T03:47:52Z</time>
      </trkpt>
      <trkpt lat="50.50032" lon="3.66289">
        <ele>36</ele>
        <time>2022-05-26T03:47:55Z</time>
      </trkpt>
      <trkpt lat="50.50031" lon="3.66273">
        <ele>36</ele>
        <time>2022-05-26T03:47:57Z</time>
      </trkpt>
      <trkpt lat="50.50027" lon="3.66254">
        <ele>36</ele>
        <time>2022-05-26T03:48:00Z</time>
      </trkpt>
      <trkpt lat="50.50032" lon="3.66262">
        <ele>36</ele>
        <time>2022-05-26T03:48:02Z</time>
      </trkpt>
      <trkpt lat="50.50027" lon="3.66254">
        <ele>36</ele>
        <time>2022-05-26T03:48:04Z</time>
      </trkpt>
      <trkpt lat="50.50011" lon="3.66259">
        <ele>35</ele>
        <time>2022-05-26T03:48:07Z</time>
      </trkpt>
      <trkpt lat="50.49995" lon="3.66251">
        <ele>35</ele>
        <time>2022-05-26T03:48:11Z</time>
      </trkpt>
      <trkpt lat="50.49739" lon="3.6593">
        <ele>35</ele>
        <time>2022-05-26T03:49:28Z</time>
      </trkpt>
      <trkpt lat="50.49695" lon="3.65885">
        <ele>34</ele>
        <time>2022-05-26T03:49:40Z</time>
      </trkpt>
      <trkpt lat="50.49641" lon="3.65846">
        <ele>34</ele>
        <time>2022-05-26T03:49:54Z</time>
      </trkpt>
      <trkpt lat="50.49596" lon="3.65816">
        <ele>36</ele>
        <time>2022-05-26T03:50:05Z</time>
      </trkpt>
      <trkpt lat="50.49515" lon="3.65786">
        <ele>36</ele>
        <time>2022-05-26T03:50:25Z</time>
      </trkpt>
      <trkpt lat="50.49437" lon="3.65775">
        <ele>35</ele>
        <time>2022-05-26T03:50:43Z</time>
      </trkpt>
      <trkpt lat="50.4934" lon="3.65779">
        <ele>32</ele>
        <time>2022-05-26T03:51:06Z</time>
      </trkpt>
      <trkpt lat="50.49274" lon="3.65801">
        <ele>32</ele>
        <time>2022-05-26T03:51:21Z</time>
      </trkpt>
      <trkpt lat="50.49253" lon="3.65805">
        <ele>31</ele>
        <time>2022-05-26T03:51:26Z</time>
      </trkpt>
      <trkpt lat="50.49237" lon="3.658">
        <ele>31</ele>
        <time>2022-05-26T03:51:30Z</time>
      </trkpt>
      <trkpt lat="50.49229" lon="3.6579">
        <ele>31</ele>
        <time>2022-05-26T03:51:33Z</time>
      </trkpt>
      <trkpt lat="50.49222" lon="3.65778">
        <ele>31</ele>
        <time>2022-05-26T03:51:35Z</time>
      </trkpt>
      <trkpt lat="50.49218" lon="3.65764">
        <ele>31</ele>
        <time>2022-05-26T03:51:37Z</time>
      </trkpt>
      <trkpt lat="50.49217" lon="3.6575">
        <ele>32</ele>
        <time>2022-05-26T03:51:39Z</time>
      </trkpt>
      <trkpt lat="50.49226" lon="3.65713">
        <ele>33</ele>
        <time>2022-05-26T03:51:45Z</time>
      </trkpt>
      <trkpt lat="50.49374" lon="3.65215">
        <ele>33</ele>
        <time>2022-05-26T03:53:07Z</time>
      </trkpt>
      <trkpt lat="50.49392" lon="3.65219">
        <ele>34</ele>
        <time>2022-05-26T03:53:11Z</time>
      </trkpt>
      <trkpt lat="50.49441" lon="3.65318">
        <ele>36</ele>
        <time>2022-05-26T03:53:30Z</time>
      </trkpt>
      <trkpt lat="50.49521" lon="3.65257">
        <ele>39</ele>
        <time>2022-05-26T03:53:51Z</time>
      </trkpt>
      <trkpt lat="50.49536" lon="3.65289">
        <ele>41</ele>
        <time>2022-05-26T03:53:56Z</time>
      </trkpt>
      <trkpt lat="50.49547" lon="3.65324">
        <ele>42</ele>
        <time>2022-05-26T03:54:02Z</time>
      </trkpt>
      <trkpt lat="50.49566" lon="3.65402">
        <ele>44</ele>
        <time>2022-05-26T03:54:15Z</time>
      </trkpt>
      <trkpt lat="50.49574" lon="3.65418">
        <ele>44</ele>
        <time>2022-05-26T03:54:18Z</time>
      </trkpt>
      <trkpt lat="50.49583" lon="3.6543">
        <ele>45</ele>
        <time>2022-05-26T03:54:20Z</time>
      </trkpt>
      <trkpt lat="50.49599" lon="3.65443">
        <ele>45</ele>
        <time>2022-05-26T03:54:25Z</time>
      </trkpt>
      <trkpt lat="50.49665" lon="3.65485">
        <ele>45</ele>
        <time>2022-05-26T03:54:41Z</time>
      </trkpt>
      <trkpt lat="50.49674" lon="3.65501">
        <ele>44</ele>
        <time>2022-05-26T03:54:44Z</time>
      </trkpt>
      <trkpt lat="50.49681" lon="3.65472">
        <ele>45</ele>
        <time>2022-05-26T03:54:49Z</time>
      </trkpt>
      <trkpt lat="50.49705" lon="3.65406">
        <ele>46</ele>
        <time>2022-05-26T03:55:00Z</time>
      </trkpt>
      <trkpt lat="50.49719" lon="3.65242">
        <ele>51</ele>
        <time>2022-05-26T03:55:25Z</time>
      </trkpt>
      <trkpt lat="50.49743" lon="3.65157">
        <ele>57</ele>
        <time>2022-05-26T03:55:39Z</time>
      </trkpt>
      <trkpt lat="50.49729" lon="3.65022">
        <ele>61</ele>
        <time>2022-05-26T03:55:59Z</time>
      </trkpt>
      <trkpt lat="50.4975" lon="3.65">
        <ele>62</ele>
        <time>2022-05-26T03:56:05Z</time>
      </trkpt>
      <trkpt lat="50.49792" lon="3.64744">
        <ele>68</ele>
        <time>2022-05-26T03:56:44Z</time>
      </trkpt>
      <trkpt lat="50.49813" lon="3.6428">
        <ele>58</ele>
        <time>2022-05-26T03:57:53Z</time>
      </trkpt>
      <trkpt lat="50.50045" lon="3.63879">
        <ele>39</ele>
        <time>2022-05-26T03:59:14Z</time>
      </trkpt>
      <trkpt lat="50.50033" lon="3.63837">
        <ele>40</ele>
        <time>2022-05-26T03:59:21Z</time>
      </trkpt>
      <trkpt lat="50.50013" lon="3.63769">
        <ele>44</ele>
        <time>2022-05-26T03:59:32Z</time>
      </trkpt>
      <trkpt lat="50.49952" lon="3.63568">
        <ele>44</ele>
        <time>2022-05-26T04:00:05Z</time>
      </trkpt>
      <trkpt lat="50.49913" lon="3.63605">
        <ele>47</ele>
        <time>2022-05-26T04:00:16Z</time>
      </trkpt>
      <trkpt lat="50.49899" lon="3.63634">
        <ele>51</ele>
        <time>2022-05-26T04:00:21Z</time>
      </trkpt>
      <trkpt lat="50.49826" lon="3.63815">
        <ele>57</ele>
        <time>2022-05-26T04:00:53Z</time>
      </trkpt>
      <trkpt lat="50.49817" lon="3.63806">
        <ele>58</ele>
        <time>2022-05-26T04:00:55Z</time>
      </trkpt>
      <trkpt lat="50.49807" lon="3.63804">
        <ele>59</ele>
        <time>2022-05-26T04:00:58Z</time>
      </trkpt>
      <trkpt lat="50.49806" lon="3.63794">
        <ele>59</ele>
        <time>2022-05-26T04:00:59Z</time>
      </trkpt>
      <trkpt lat="50.49798" lon="3.63791">
        <ele>59</ele>
        <time>2022-05-26T04:01:01Z</time>
      </trkpt>
      <trkpt lat="50.49792" lon="3.63783">
        <ele>59</ele>
        <time>2022-05-26T04:01:03Z</time>
      </trkpt>
      <trkpt lat="50.49782" lon="3.63803">
        <ele>60</ele>
        <time>2022-05-26T04:01:07Z</time>
      </trkpt>
      <trkpt lat="50.49799" lon="3.63771">
        <ele>59</ele>
        <time>2022-05-26T04:01:13Z</time>
      </trkpt>
      <trkpt lat="50.49808" lon="3.63699">
        <ele>59</ele>
        <time>2022-05-26T04:01:24Z</time>
      </trkpt>
      <trkpt lat="50.49807" lon="3.63604">
        <ele>65</ele>
        <time>2022-05-26T04:01:38Z</time>
      </trkpt>
      <trkpt lat="50.49787" lon="3.63507">
        <ele>72</ele>
        <time>2022-05-26T04:01:53Z</time>
      </trkpt>
      <trkpt lat="50.49792" lon="3.63375">
        <ele>70</ele>
        <time>2022-05-26T04:02:13Z</time>
      </trkpt>
      <trkpt lat="50.49767" lon="3.63248">
        <ele>72</ele>
        <time>2022-05-26T04:02:32Z</time>
      </trkpt>
      <trkpt lat="50.49756" lon="3.63147">
        <ele>73</ele>
        <time>2022-05-26T04:02:48Z</time>
      </trkpt>
      <trkpt lat="50.49753" lon="3.6306">
        <ele>72</ele>
        <time>2022-05-26T04:03:01Z</time>
      </trkpt>
      <trkpt lat="50.49757" lon="3.62916">
        <ele>73</ele>
        <time>2022-05-26T04:03:22Z</time>
      </trkpt>
      <trkpt lat="50.49749" lon="3.62852">
        <ele>71</ele>
        <time>2022-05-26T04:03:32Z</time>
      </trkpt>
      <trkpt lat="50.49747" lon="3.62809">
        <ele>71</ele>
        <time>2022-05-26T04:03:38Z</time>
      </trkpt>
      <trkpt lat="50.49753" lon="3.62769">
        <ele>70</ele>
        <time>2022-05-26T04:03:44Z</time>
      </trkpt>
      <trkpt lat="50.49746" lon="3.62704">
        <ele>71</ele>
        <time>2022-05-26T04:03:54Z</time>
      </trkpt>
      <trkpt lat="50.49745" lon="3.62672">
        <ele>72</ele>
        <time>2022-05-26T04:03:59Z</time>
      </trkpt>
      <trkpt lat="50.49747" lon="3.62544">
        <ele>71</ele>
        <time>2022-05-26T04:04:18Z</time>
      </trkpt>
      <trkpt lat="50.49757" lon="3.62449">
        <ele>66</ele>
        <time>2022-05-26T04:04:32Z</time>
      </trkpt>
      <trkpt lat="50.49756" lon="3.62416">
        <ele>64</ele>
        <time>2022-05-26T04:04:37Z</time>
      </trkpt>
      <trkpt lat="50.49759" lon="3.62382">
        <ele>65</ele>
        <time>2022-05-26T04:04:42Z</time>
      </trkpt>
      <trkpt lat="50.49766" lon="3.62345">
        <ele>65</ele>
        <time>2022-05-26T04:04:48Z</time>
      </trkpt>
      <trkpt lat="50.49768" lon="3.62306">
        <ele>66</ele>
        <time>2022-05-26T04:04:54Z</time>
      </trkpt>
      <trkpt lat="50.49785" lon="3.62239">
        <ele>67</ele>
        <time>2022-05-26T04:05:04Z</time>
      </trkpt>
      <trkpt lat="50.4979" lon="3.62211">
        <ele>69</ele>
        <time>2022-05-26T04:05:09Z</time>
      </trkpt>
      <trkpt lat="50.49793" lon="3.62201">
        <ele>69</ele>
        <time>2022-05-26T04:05:10Z</time>
      </trkpt>
      <trkpt lat="50.4979" lon="3.62211">
        <ele>69</ele>
        <time>2022-05-26T04:05:12Z</time>
      </trkpt>
      <trkpt lat="50.49785" lon="3.62239">
        <ele>67</ele>
        <time>2022-05-26T04:05:16Z</time>
      </trkpt>
      <trkpt lat="50.49768" lon="3.62306">
        <ele>66</ele>
        <time>2022-05-26T04:05:27Z</time>
      </trkpt>
      <trkpt lat="50.49766" lon="3.62345">
        <ele>65</ele>
        <time>2022-05-26T04:05:33Z</time>
      </trkpt>
      <trkpt lat="50.49754" lon="3.62358">
        <ele>65</ele>
        <time>2022-05-26T04:05:36Z</time>
      </trkpt>
      <trkpt lat="50.49741" lon="3.62368">
        <ele>64</ele>
        <time>2022-05-26T04:05:40Z</time>
      </trkpt>
      <trkpt lat="50.49718" lon="3.62368">
        <ele>62</ele>
        <time>2022-05-26T04:05:45Z</time>
      </trkpt>
      <trkpt lat="50.49701" lon="3.62373">
        <ele>60</ele>
        <time>2022-05-26T04:05:49Z</time>
      </trkpt>
      <trkpt lat="50.49677" lon="3.62394">
        <ele>58</ele>
        <time>2022-05-26T04:05:55Z</time>
      </trkpt>
      <trkpt lat="50.49662" lon="3.62403">
        <ele>56</ele>
        <time>2022-05-26T04:05:59Z</time>
      </trkpt>
      <trkpt lat="50.49638" lon="3.62445">
        <ele>57</ele>
        <time>2022-05-26T04:06:08Z</time>
      </trkpt>
      <trkpt lat="50.49621" lon="3.625">
        <ele>59</ele>
        <time>2022-05-26T04:06:17Z</time>
      </trkpt>
      <trkpt lat="50.49606" lon="3.62533">
        <ele>58</ele>
        <time>2022-05-26T04:06:23Z</time>
      </trkpt>
      <trkpt lat="50.49591" lon="3.62557">
        <ele>56</ele>
        <time>2022-05-26T04:06:28Z</time>
      </trkpt>
      <trkpt lat="50.49578" lon="3.62557">
        <ele>55</ele>
        <time>2022-05-26T04:06:31Z</time>
      </trkpt>
      <trkpt lat="50.49581" lon="3.62444">
        <ele>55</ele>
        <time>2022-05-26T04:06:47Z</time>
      </trkpt>
      <trkpt lat="50.49586" lon="3.62366">
        <ele>54</ele>
        <time>2022-05-26T04:06:59Z</time>
      </trkpt>
      <trkpt lat="50.49598" lon="3.62274">
        <ele>53</ele>
        <time>2022-05-26T04:07:13Z</time>
      </trkpt>
      <trkpt lat="50.49601" lon="3.62199">
        <ele>51</ele>
        <time>2022-05-26T04:07:24Z</time>
      </trkpt>
      <trkpt lat="50.49615" lon="3.62115">
        <ele>51</ele>
        <time>2022-05-26T04:07:37Z</time>
      </trkpt>
      <trkpt lat="50.49613" lon="3.62049">
        <ele>52</ele>
        <time>2022-05-26T04:07:47Z</time>
      </trkpt>
      <trkpt lat="50.49626" lon="3.62018">
        <ele>54</ele>
        <time>2022-05-26T04:07:52Z</time>
      </trkpt>
      <trkpt lat="50.4977" lon="3.61971">
        <ele>72</ele>
        <time>2022-05-26T04:08:27Z</time>
      </trkpt>
      <trkpt lat="50.49767" lon="3.61852">
        <ele>73</ele>
        <time>2022-05-26T04:08:45Z</time>
      </trkpt>
      <trkpt lat="50.4979" lon="3.61746">
        <ele>73</ele>
        <time>2022-05-26T04:09:01Z</time>
      </trkpt>
      <trkpt lat="50.49792" lon="3.61729">
        <ele>72</ele>
        <time>2022-05-26T04:09:04Z</time>
      </trkpt>
      <trkpt lat="50.49644" lon="3.61697">
        <ele>61</ele>
        <time>2022-05-26T04:09:39Z</time>
      </trkpt>
      <trkpt lat="50.49649" lon="3.61668">
        <ele>60</ele>
        <time>2022-05-26T04:09:43Z</time>
      </trkpt>
      <trkpt lat="50.49657" lon="3.6165">
        <ele>60</ele>
        <time>2022-05-26T04:09:46Z</time>
      </trkpt>
      <trkpt lat="50.4968" lon="3.61613">
        <ele>60</ele>
        <time>2022-05-26T04:09:54Z</time>
      </trkpt>
      <trkpt lat="50.49692" lon="3.61586">
        <ele>60</ele>
        <time>2022-05-26T04:09:59Z</time>
      </trkpt>
      <trkpt lat="50.49701" lon="3.6156">
        <ele>58</ele>
        <time>2022-05-26T04:10:03Z</time>
      </trkpt>
      <trkpt lat="50.49708" lon="3.61532">
        <ele>57</ele>
        <time>2022-05-26T04:10:08Z</time>
      </trkpt>
      <trkpt lat="50.4971" lon="3.61503">
        <ele>55</ele>
        <time>2022-05-26T04:10:12Z</time>
      </trkpt>
      <trkpt lat="50.4971" lon="3.61475">
        <ele>54</ele>
        <time>2022-05-26T04:10:16Z</time>
      </trkpt>
      <trkpt lat="50.49709" lon="3.61436">
        <ele>54</ele>
        <time>2022-05-26T04:10:22Z</time>
      </trkpt>
      <trkpt lat="50.49704" lon="3.61393">
        <ele>53</ele>
        <time>2022-05-26T04:10:29Z</time>
      </trkpt>
      <trkpt lat="50.49696" lon="3.61278">
        <ele>53</ele>
        <time>2022-05-26T04:10:46Z</time>
      </trkpt>
      <trkpt lat="50.49694" lon="3.61211">
        <ele>54</ele>
        <time>2022-05-26T04:10:56Z</time>
      </trkpt>
      <trkpt lat="50.49694" lon="3.61184">
        <ele>54</ele>
        <time>2022-05-26T04:11:00Z</time>
      </trkpt>
      <trkpt lat="50.49697" lon="3.61178">
        <ele>55</ele>
        <time>2022-05-26T04:11:01Z</time>
      </trkpt>
      <trkpt lat="50.49711" lon="3.61199">
        <ele>56</ele>
        <time>2022-05-26T04:11:05Z</time>
      </trkpt>
      <trkpt lat="50.49793" lon="3.61188">
        <ele>62</ele>
        <time>2022-05-26T04:11:25Z</time>
      </trkpt>
      <trkpt lat="50.49785" lon="3.61127">
        <ele>61</ele>
        <time>2022-05-26T04:11:34Z</time>
      </trkpt>
      <trkpt lat="50.49784" lon="3.61108">
        <ele>61</ele>
        <time>2022-05-26T04:11:37Z</time>
      </trkpt>
      <trkpt lat="50.49785" lon="3.61104">
        <ele>61</ele>
        <time>2022-05-26T04:11:37Z</time>
      </trkpt>
      <trkpt lat="50.49783" lon="3.61098">
        <ele>61</ele>
        <time>2022-05-26T04:11:38Z</time>
      </trkpt>
      <trkpt lat="50.49779" lon="3.61035">
        <ele>61</ele>
        <time>2022-05-26T04:11:48Z</time>
      </trkpt>
      <trkpt lat="50.49846" lon="3.60996">
        <ele>63</ele>
        <time>2022-05-26T04:12:04Z</time>
      </trkpt>
      <trkpt lat="50.49846" lon="3.60969">
        <ele>62</ele>
        <time>2022-05-26T04:12:08Z</time>
      </trkpt>
      <trkpt lat="50.49878" lon="3.60928">
        <ele>61</ele>
        <time>2022-05-26T04:12:18Z</time>
      </trkpt>
      <trkpt lat="50.49889" lon="3.60923">
        <ele>61</ele>
        <time>2022-05-26T04:12:21Z</time>
      </trkpt>
      <trkpt lat="50.49968" lon="3.60799">
        <ele>49</ele>
        <time>2022-05-26T04:12:47Z</time>
      </trkpt>
      <trkpt lat="50.50033" lon="3.60794">
        <ele>45</ele>
        <time>2022-05-26T04:13:02Z</time>
      </trkpt>
      <trkpt lat="50.50093" lon="3.60729">
        <ele>41</ele>
        <time>2022-05-26T04:13:19Z</time>
      </trkpt>
      <trkpt lat="50.50112" lon="3.60682">
        <ele>39</ele>
        <time>2022-05-26T04:13:27Z</time>
      </trkpt>
      <trkpt lat="50.50088" lon="3.60635">
        <ele>39</ele>
        <time>2022-05-26T04:13:36Z</time>
      </trkpt>
      <trkpt lat="50.50068" lon="3.60588">
        <ele>41</ele>
        <time>2022-05-26T04:13:45Z</time>
      </trkpt>
      <trkpt lat="50.5002" lon="3.60498">
        <ele>40</ele>
        <time>2022-05-26T04:14:02Z</time>
      </trkpt>
      <trkpt lat="50.49994" lon="3.6046">
        <ele>39</ele>
        <time>2022-05-26T04:14:10Z</time>
      </trkpt>
      <trkpt lat="50.50034" lon="3.60391">
        <ele>39</ele>
        <time>2022-05-26T04:14:24Z</time>
      </trkpt>
      <trkpt lat="50.50025" lon="3.60325">
        <ele>39</ele>
        <time>2022-05-26T04:14:34Z</time>
      </trkpt>
      <trkpt lat="50.50009" lon="3.60288">
        <ele>38</ele>
        <time>2022-05-26T04:14:41Z</time>
      </trkpt>
      <trkpt lat="50.50302" lon="3.59831">
        <ele>34</ele>
        <time>2022-05-26T04:16:17Z</time>
      </trkpt>
      <trkpt lat="50.50322" lon="3.5981">
        <ele>33</ele>
        <time>2022-05-26T04:16:23Z</time>
      </trkpt>
      <trkpt lat="50.50328" lon="3.59806">
        <ele>33</ele>
        <time>2022-05-26T04:16:24Z</time>
      </trkpt>
      <trkpt lat="50.50331" lon="3.59797">
        <ele>33</ele>
        <time>2022-05-26T04:16:26Z</time>
      </trkpt>
      <trkpt lat="50.50331" lon="3.5979">
        <ele>33</ele>
        <time>2022-05-26T04:16:27Z</time>
      </trkpt>
      <trkpt lat="50.50327" lon="3.59782">
        <ele>33</ele>
        <time>2022-05-26T04:16:29Z</time>
      </trkpt>
      <trkpt lat="50.50323" lon="3.59779">
        <ele>33</ele>
        <time>2022-05-26T04:16:30Z</time>
      </trkpt>
      <trkpt lat="50.5032" lon="3.59767">
        <ele>33</ele>
        <time>2022-05-26T04:16:31Z</time>
      </trkpt>
      <trkpt lat="50.50319" lon="3.59755">
        <ele>33</ele>
        <time>2022-05-26T04:16:33Z</time>
      </trkpt>
      <trkpt lat="50.50322" lon="3.59714">
        <ele>33</ele>
        <time>2022-05-26T04:16:39Z</time>
      </trkpt>
      <trkpt lat="50.5032" lon="3.59678">
        <ele>32</ele>
        <time>2022-05-26T04:16:45Z</time>
      </trkpt>
      <trkpt lat="50.50222" lon="3.59197">
        <ele>36</ele>
        <time>2022-05-26T04:18:00Z</time>
      </trkpt>
      <trkpt lat="50.50217" lon="3.59168">
        <ele>37</ele>
        <time>2022-05-26T04:18:04Z</time>
      </trkpt>
      <trkpt lat="50.50214" lon="3.5914">
        <ele>38</ele>
        <time>2022-05-26T04:18:08Z</time>
      </trkpt>
      <trkpt lat="50.50207" lon="3.59043">
        <ele>39</ele>
        <time>2022-05-26T04:18:23Z</time>
      </trkpt>
      <trkpt lat="50.50201" lon="3.58907">
        <ele>42</ele>
        <time>2022-05-26T04:18:43Z</time>
      </trkpt>
      <trkpt lat="50.50206" lon="3.58892">
        <ele>42</ele>
        <time>2022-05-26T04:18:46Z</time>
      </trkpt>
      <trkpt lat="50.50211" lon="3.58884">
        <ele>42</ele>
        <time>2022-05-26T04:18:47Z</time>
      </trkpt>
      <trkpt lat="50.50218" lon="3.5888">
        <ele>42</ele>
        <time>2022-05-26T04:18:49Z</time>
      </trkpt>
      <trkpt lat="50.50277" lon="3.5888">
        <ele>43</ele>
        <time>2022-05-26T04:19:03Z</time>
      </trkpt>
    </trkseg>
  </trk>
</gpx>